Observation data for Persimmon Gap on 02/14/2018      Previous  Date  Next       Current Mesonet Observations  Soil Data  Daily Summary Page  Observations in Plain Language
KPG1 140600Z 06013KT 12/03 A3027 RMK A01 T01180030  RH  055%=      5-min Rain = 0
KPG1 140601Z 06012KT 12/03 A3027 RMK A01 T01180031  RH  055%=      5-min Rain = 0
KPG1 140602Z 05012KT 12/03 A3027 RMK A01 T01180031  RH  055%=      5-min Rain = 0
KPG1 140603Z 06013KT 12/03 A3027 RMK A01 T01190032  RH  055%=      5-min Rain = 0
KPG1 140604Z 06013KT 12/03 A3027 RMK A01 T01190034  RH  056%=      5-min Rain = 0
KPG1 140605Z 06014KT 12/04 A3027 RMK A01 T01190036  RH  057%=      5-min Rain = 0
KPG1 140606Z 06014KT 12/04 A3027 RMK A01 T01190037  RH  057%=      5-min Rain = 0
KPG1 140607Z 06014KT 12/04 A3027 RMK A01 T01180037  RH  057%=      5-min Rain = 0
KPG1 140608Z 06014KT 12/04 A3027 RMK A01 T01180037  RH  057%=      5-min Rain = 0
KPG1 140609Z 06014KT 12/04 A3027 RMK A01 T01180037  RH  058%=      5-min Rain = 0
KPG1 140610Z 06015KT 12/04 A3027 RMK A01 T01180038  RH  058%=      5-min Rain = 0
KPG1 140611Z 06014KT 12/04 A3027 RMK A01 T01170039  RH  058%=      5-min Rain = 0
KPG1 140612Z 06014KT 12/04 A3027 RMK A01 T01170039  RH  059%=      5-min Rain = 0
KPG1 140613Z 06014KT 12/04 A3027 RMK A01 T01170039  RH  059%=      5-min Rain = 0
KPG1 140614Z 06013KT 12/04 A3027 RMK A01 T01180038  RH  058%=      5-min Rain = 0
KPG1 140615Z 06013KT 12/04 A3027 RMK A01 T01180037  RH  057%=      5-min Rain = 0
KPG1 140616Z 06014KT 12/04 A3027 RMK A01 T01190038  RH  058%=      5-min Rain = 0
KPG1 140617Z 06014KT 12/04 A3027 RMK A01 T01190039  RH  058%=      5-min Rain = 0
KPG1 140618Z 06014KT 12/04 A3027 RMK A01 T01180038  RH  058%=      5-min Rain = 0
KPG1 140619Z 06014KT 12/04 A3027 RMK A01 T01180039  RH  058%=      5-min Rain = 0
KPG1 140620Z 06013KT 12/04 A3027 RMK A01 T01180040  RH  059%=      5-min Rain = 0
KPG1 140621Z 06013KT 12/04 A3027 RMK A01 T01170041  RH  059%=      5-min Rain = 0
KPG1 140622Z 06012KT 12/04 A3027 RMK A01 T01170041  RH  060%=      5-min Rain = 0
KPG1 140623Z 06013KT 12/04 A3027 RMK A01 T01160042  RH  060%=      5-min Rain = 0
KPG1 140624Z 06012KT 12/04 A3027 RMK A01 T01160041  RH  060%=      5-min Rain = 0
KPG1 140625Z 06012KT 12/04 A3027 RMK A01 T01160041  RH  060%=      5-min Rain = 0
KPG1 140626Z 06012KT 12/04 A3027 RMK A01 T01160041  RH  060%=      5-min Rain = 0
KPG1 140627Z 05010KT 12/04 A3027 RMK A01 T01160041  RH  060%=      5-min Rain = 0
KPG1 140628Z 06011KT 12/04 A3027 RMK A01 T01150040  RH  060%=      5-min Rain = 0
KPG1 140629Z 06012KT 12/04 A3026 RMK A01 T01160038  RH  059%=      5-min Rain = 0
KPG1 140630Z 06013KT 12/04 A3026 RMK A01 T01160039  RH  059%=      5-min Rain = 0
KPG1 140631Z 06014KT 12/04 A3026 RMK A01 T01160041  RH  060%=      5-min Rain = 0
KPG1 140632Z 06014KT 12/04 A3026 RMK A01 T01150041  RH  060%=      5-min Rain = 0
KPG1 140633Z 06012KT 11/04 A3026 RMK A01 T01140041  RH  061%=      5-min Rain = 0
KPG1 140634Z 06009KT 12/04 A3026 RMK A01 T01150040  RH  060%=      5-min Rain = 0
KPG1 140635Z 04008KT 11/04 A3027 RMK A01 T01140041  RH  060%=      5-min Rain = 0
KPG1 140636Z 05010KT 11/04 A3026 RMK A01 T01140041  RH  061%=      5-min Rain = 0
KPG1 140637Z 06010KT 11/04 A3026 RMK A01 T01140041  RH  061%=      5-min Rain = 0
KPG1 140638Z 05009KT 11/04 A3026 RMK A01 T01140041  RH  061%=      5-min Rain = 0
KPG1 140639Z 05010KT 11/04 A3026 RMK A01 T01130041  RH  061%=      5-min Rain = 0
KPG1 140640Z 06011KT 11/04 A3026 RMK A01 T01130041  RH  061%=      5-min Rain = 0
KPG1 140641Z 06011KT 11/04 A3027 RMK A01 T01130042  RH  062%=      5-min Rain = 0
KPG1 140642Z 06012KT 11/04 A3027 RMK A01 T01130042  RH  062%=      5-min Rain = 0
KPG1 140643Z 05010KT 11/04 A3027 RMK A01 T01130043  RH  062%=      5-min Rain = 0
KPG1 140644Z 06012KT 11/04 A3027 RMK A01 T01130042  RH  062%=      5-min Rain = 0
KPG1 140645Z 06012KT 11/04 A3027 RMK A01 T01130043  RH  062%=      5-min Rain = 0
KPG1 140646Z 06012KT 11/04 A3027 RMK A01 T01130041  RH  061%=      5-min Rain = 0
KPG1 140647Z 06013KT 11/04 A3027 RMK A01 T01140042  RH  061%=      5-min Rain = 0
KPG1 140648Z 06013KT 11/04 A3027 RMK A01 T01140043  RH  062%=      5-min Rain = 0
KPG1 140649Z 06013KT 11/04 A3026 RMK A01 T01130043  RH  062%=      5-min Rain = 0
KPG1 140650Z 07013KT 11/04 A3026 RMK A01 T01130043  RH  062%=      5-min Rain = 0
KPG1 140651Z 06014KT 11/04 A3026 RMK A01 T01130043  RH  062%=      5-min Rain = 0
KPG1 140652Z 07013KT 11/04 A3026 RMK A01 T01130043  RH  062%=      5-min Rain = 0
KPG1 140653Z 06011KT 11/04 A3027 RMK A01 T01120043  RH  062%=      5-min Rain = 0
KPG1 140654Z 06012KT 11/04 A3027 RMK A01 T01120043  RH  063%=      5-min Rain = 0
KPG1 140655Z 06012KT 11/04 A3026 RMK A01 T01120044  RH  063%=      5-min Rain = 0
KPG1 140656Z 06013KT 11/04 A3026 RMK A01 T01120044  RH  063%=      5-min Rain = 0
KPG1 140657Z 06013KT 11/04 A3026 RMK A01 T01120044  RH  063%=      5-min Rain = 0
KPG1 140658Z 05012KT 11/04 A3026 RMK A01 T01120044  RH  063%=      5-min Rain = 0
KPG1 140659Z 06012KT 11/04 A3026 RMK A01 T01120044  RH  063%=      5-min Rain = 0
KPG1 140700Z 06012KT 11/04 A3026 RMK A01 T01110044  RH  063%=      5-min Rain = 0
KPG1 140701Z 06011KT 11/04 A3026 RMK A01 T01110043  RH  063%=      5-min Rain = 0
KPG1 140702Z 06012KT 11/04 A3026 RMK A01 T01110043  RH  063%=      5-min Rain = 0
KPG1 140703Z 06013KT 11/04 A3026 RMK A01 T01100043  RH  063%=      5-min Rain = 0
KPG1 140704Z 05011KT 11/04 A3026 RMK A01 T01110043  RH  063%=      5-min Rain = 0
KPG1 140705Z 06013KT 11/04 A3026 RMK A01 T01100042  RH  063%=      5-min Rain = 0
KPG1 140706Z 06012KT 11/04 A3027 RMK A01 T01100043  RH  063%=      5-min Rain = 0
KPG1 140707Z 05012KT 11/04 A3026 RMK A01 T01100043  RH  063%=      5-min Rain = 0
KPG1 140708Z 05011KT 11/04 A3026 RMK A01 T01100043  RH  063%=      5-min Rain = 0
KPG1 140709Z 05012KT 11/04 A3026 RMK A01 T01090043  RH  063%=      5-min Rain = 0
KPG1 140710Z 05013KT 11/04 A3026 RMK A01 T01090043  RH  064%=      5-min Rain = 0
KPG1 140711Z 05013KT 11/04 A3026 RMK A01 T01090043  RH  064%=      5-min Rain = 0
KPG1 140712Z 05011KT 11/04 A3026 RMK A01 T01090044  RH  064%=      5-min Rain = 0
KPG1 140713Z 05012KT 11/04 A3026 RMK A01 T01090044  RH  064%=      5-min Rain = 0
KPG1 140714Z 04013KT 11/04 A3026 RMK A01 T01090044  RH  064%=      5-min Rain = 0
KPG1 140715Z 05012KT 11/04 A3026 RMK A01 T01090044  RH  064%=      5-min Rain = 0
KPG1 140716Z 05012KT 11/04 A3026 RMK A01 T01090044  RH  064%=      5-min Rain = 0
KPG1 140717Z 05011KT 11/04 A3027 RMK A01 T01090044  RH  064%=      5-min Rain = 0
KPG1 140718Z 05011KT 11/04 A3027 RMK A01 T01080043  RH  064%=      5-min Rain = 0
KPG1 140719Z 05011KT 11/04 A3027 RMK A01 T01080043  RH  064%=      5-min Rain = 0
KPG1 140720Z 05011KT 11/04 A3027 RMK A01 T01080044  RH  064%=      5-min Rain = 0
KPG1 140721Z 05010KT 11/04 A3027 RMK A01 T01080044  RH  064%=      5-min Rain = 0
KPG1 140722Z 05010KT 11/04 A3027 RMK A01 T01080044  RH  065%=      5-min Rain = 0
KPG1 140723Z 05009KT 11/04 A3027 RMK A01 T01080044  RH  065%=      5-min Rain = 0
KPG1 140724Z 04011KT 11/04 A3026 RMK A01 T01080044  RH  065%=      5-min Rain = 0
KPG1 140725Z 05010KT 11/04 A3026 RMK A01 T01080044  RH  065%=      5-min Rain = 0
KPG1 140726Z 04010KT 11/04 A3027 RMK A01 T01080044  RH  065%=      5-min Rain = 0
KPG1 140727Z 04012KT 11/04 A3027 RMK A01 T01080044  RH  065%=      5-min Rain = 0
KPG1 140728Z 03011KT 11/04 A3027 RMK A01 T01080044  RH  065%=      5-min Rain = 0
KPG1 140729Z 04011KT 11/04 A3027 RMK A01 T01070044  RH  065%=      5-min Rain = 0
KPG1 140730Z 03011KT 11/04 A3027 RMK A01 T01070044  RH  065%=      5-min Rain = 0
KPG1 140731Z 03012KT 11/04 A3026 RMK A01 T01070044  RH  065%=      5-min Rain = 0
KPG1 140732Z 03012KT 11/04 A3026 RMK A01 T01070044  RH  065%=      5-min Rain = 0
KPG1 140733Z 04012KT 11/04 A3026 RMK A01 T01060043  RH  065%=      5-min Rain = 0
KPG1 140734Z 04012KT 11/04 A3026 RMK A01 T01060044  RH  065%=      5-min Rain = 0
KPG1 140735Z 04011KT 11/04 A3026 RMK A01 T01060044  RH  065%=      5-min Rain = 0
KPG1 140736Z 04010KT 11/04 A3026 RMK A01 T01060044  RH  065%=      5-min Rain = 0
KPG1 140737Z 04010KT 11/04 A3026 RMK A01 T01060044  RH  066%=      5-min Rain = 0
KPG1 140738Z 03010KT 11/05 A3026 RMK A01 T01060045  RH  066%=      5-min Rain = 0
KPG1 140739Z 03011KT 11/04 A3026 RMK A01 T01060044  RH  066%=      5-min Rain = 0
KPG1 140740Z 03012KT 11/04 A3026 RMK A01 T01050044  RH  066%=      5-min Rain = 0
KPG1 140741Z 03012KT 11/05 A3026 RMK A01 T01050045  RH  066%=      5-min Rain = 0
KPG1 140742Z 03012KT 11/04 A3026 RMK A01 T01050044  RH  066%=      5-min Rain = 0
KPG1 140743Z 03012KT 11/04 A3026 RMK A01 T01050044  RH  066%=      5-min Rain = 0
KPG1 140744Z 03011KT 11/04 A3026 RMK A01 T01050044  RH  066%=      5-min Rain = 0
KPG1 140745Z 03011KT 10/04 A3026 RMK A01 T01040043  RH  066%=      5-min Rain = 0
KPG1 140746Z 03011KT 10/04 A3026 RMK A01 T01040043  RH  066%=      5-min Rain = 0
KPG1 140747Z 03011KT 10/04 A3026 RMK A01 T01040043  RH  066%=      5-min Rain = 0
KPG1 140748Z 03010KT 10/04 A3026 RMK A01 T01040043  RH  066%=      5-min Rain = 0
KPG1 140749Z 04011KT 10/04 A3026 RMK A01 T01040044  RH  066%=      5-min Rain = 0
KPG1 140750Z 03011KT 10/04 A3026 RMK A01 T01040044  RH  067%=      5-min Rain = 0
KPG1 140751Z 03011KT 10/04 A3026 RMK A01 T01040044  RH  067%=      5-min Rain = 0
KPG1 140752Z 03011KT 10/04 A3026 RMK A01 T01040044  RH  067%=      5-min Rain = 0
KPG1 140753Z 03011KT 10/05 A3026 RMK A01 T01040045  RH  067%=      5-min Rain = 0
KPG1 140754Z 03010KT 10/05 A3026 RMK A01 T01040045  RH  067%=      5-min Rain = 0
KPG1 140755Z 03010KT 10/05 A3026 RMK A01 T01040045  RH  067%=      5-min Rain = 0
KPG1 140756Z 03010KT 10/04 A3027 RMK A01 T01030044  RH  067%=      5-min Rain = 0
KPG1 140757Z 03011KT 10/04 A3027 RMK A01 T01030044  RH  067%=      5-min Rain = 0
KPG1 140758Z 03010KT 10/04 A3027 RMK A01 T01030044  RH  067%=      5-min Rain = 0
KPG1 140759Z 03011KT 10/04 A3027 RMK A01 T01030044  RH  067%=      5-min Rain = 0
KPG1 140800Z 03010KT 10/04 A3027 RMK A01 T01030044  RH  067%=      5-min Rain = 0
KPG1 140801Z 03011KT 10/05 A3027 RMK A01 T01030045  RH  067%=      5-min Rain = 0
KPG1 140802Z 04011KT 10/05 A3027 RMK A01 T01030046  RH  068%=      5-min Rain = 0
KPG1 140803Z 03011KT 10/05 A3027 RMK A01 T01030046  RH  068%=      5-min Rain = 0
KPG1 140804Z 03011KT 10/05 A3027 RMK A01 T01030046  RH  068%=      5-min Rain = 0
KPG1 140805Z 03011KT 10/05 A3027 RMK A01 T01030046  RH  068%=      5-min Rain = 0
KPG1 140806Z 03011KT 10/05 A3027 RMK A01 T01030046  RH  068%=      5-min Rain = 0
KPG1 140807Z 04011KT 10/05 A3027 RMK A01 T01030047  RH  068%=      5-min Rain = 0
KPG1 140808Z 03011KT 10/05 A3027 RMK A01 T01030047  RH  068%=      5-min Rain = 0
KPG1 140809Z 03010KT 10/05 A3027 RMK A01 T01030047  RH  068%=      5-min Rain = 0
KPG1 140810Z 03011KT 10/05 A3027 RMK A01 T01020047  RH  068%=      5-min Rain = 0
KPG1 140811Z 03012KT 10/05 A3027 RMK A01 T01030047  RH  068%=      5-min Rain = 0
KPG1 140812Z 03012KT 10/05 A3027 RMK A01 T01030047  RH  069%=      5-min Rain = 0
KPG1 140813Z 03011KT 10/05 A3027 RMK A01 T01030048  RH  069%=      5-min Rain = 0
KPG1 140814Z 03011KT 10/05 A3027 RMK A01 T01030048  RH  069%=      5-min Rain = 0
KPG1 140815Z 03012KT 10/05 A3027 RMK A01 T01020048  RH  069%=      5-min Rain = 0
KPG1 140816Z 04012KT 10/05 A3027 RMK A01 T01020048  RH  069%=      5-min Rain = 0
KPG1 140817Z 03010KT 10/05 A3027 RMK A01 T01020048  RH  069%=      5-min Rain = 0
KPG1 140818Z 04010KT 10/05 A3027 RMK A01 T01020048  RH  069%=      5-min Rain = 0
KPG1 140819Z 03010KT 10/05 A3027 RMK A01 T01020048  RH  069%=      5-min Rain = 0
KPG1 140820Z 03011KT 10/05 A3027 RMK A01 T01020048  RH  069%=      5-min Rain = 0
KPG1 140821Z 03010KT 10/05 A3027 RMK A01 T01020048  RH  069%=      5-min Rain = 0
KPG1 140822Z 03010KT 10/05 A3027 RMK A01 T01010048  RH  069%=      5-min Rain = 0
KPG1 140823Z 03009KT 10/05 A3027 RMK A01 T01010048  RH  070%=      5-min Rain = 0
KPG1 140824Z 03010KT 10/05 A3027 RMK A01 T01010048  RH  070%=      5-min Rain = 0
KPG1 140825Z 02011KT 10/05 A3027 RMK A01 T01010048  RH  070%=      5-min Rain = 0
KPG1 140826Z 03009KT 10/05 A3027 RMK A01 T01010048  RH  070%=      5-min Rain = 0
KPG1 140827Z 03010KT 10/05 A3027 RMK A01 T01010048  RH  070%=      5-min Rain = 0
KPG1 140828Z 03011KT 10/05 A3027 RMK A01 T01010048  RH  070%=      5-min Rain = 0
KPG1 140829Z 03010KT 10/05 A3027 RMK A01 T01010048  RH  070%=      5-min Rain = 0
KPG1 140830Z 03010KT 10/05 A3027 RMK A01 T01010048  RH  070%=      5-min Rain = 0
KPG1 140831Z 03010KT 10/05 A3027 RMK A01 T01010048  RH  070%=      5-min Rain = 0
KPG1 140832Z 03010KT 10/05 A3027 RMK A01 T01010049  RH  070%=      5-min Rain = 0
KPG1 140833Z 03010KT 10/05 A3027 RMK A01 T01010049  RH  070%=      5-min Rain = 0
KPG1 140834Z 03009KT 10/05 A3027 RMK A01 T01010049  RH  070%=      5-min Rain = 0
KPG1 140835Z 03009KT 10/05 A3027 RMK A01 T01010049  RH  070%=      5-min Rain = 0
KPG1 140836Z 03010KT 10/05 A3027 RMK A01 T01010049  RH  070%=      5-min Rain = 0
KPG1 140837Z 03011KT 10/05 A3027 RMK A01 T01010049  RH  070%=      5-min Rain = 0
KPG1 140838Z 03010KT 10/05 A3027 RMK A01 T01000049  RH  070%=      5-min Rain = 0
KPG1 140839Z 03011KT 10/05 A3027 RMK A01 T01000048  RH  070%=      5-min Rain = 0
KPG1 140840Z 03010KT 10/05 A3027 RMK A01 T01000048  RH  070%=      5-min Rain = 0
KPG1 140841Z 03011KT 10/05 A3027 RMK A01 T01000049  RH  070%=      5-min Rain = 0
KPG1 140842Z 03010KT 10/05 A3027 RMK A01 T01000049  RH  070%=      5-min Rain = 0
KPG1 140843Z 02010KT 10/05 A3027 RMK A01 T01000049  RH  070%=      5-min Rain = 0
KPG1 140844Z 03010KT 10/05 A3027 RMK A01 T01000049  RH  070%=      5-min Rain = 0
KPG1 140845Z 02010KT 10/05 A3027 RMK A01 T01000049  RH  070%=      5-min Rain = 0
KPG1 140846Z 02009KT 10/05 A3027 RMK A01 T01010049  RH  070%=      5-min Rain = 0
KPG1 140847Z 02009KT 10/05 A3027 RMK A01 T01010049  RH  070%=      5-min Rain = 0
KPG1 140848Z 03009KT 10/05 A3027 RMK A01 T01000049  RH  070%=      5-min Rain = 0
KPG1 140849Z 02009KT 10/05 A3027 RMK A01 T01000049  RH  070%=      5-min Rain = 0
KPG1 140850Z 03009KT 10/05 A3027 RMK A01 T01000048  RH  070%=      5-min Rain = 0
KPG1 140851Z 02008KT 10/05 A3027 RMK A01 T01000048  RH  070%=      5-min Rain = 0
KPG1 140852Z 02009KT 10/05 A3027 RMK A01 T01010049  RH  070%=      5-min Rain = 0
KPG1 140853Z 02009KT 10/05 A3027 RMK A01 T01010049  RH  070%=      5-min Rain = 0
KPG1 140854Z 03010KT 10/05 A3027 RMK A01 T01000048  RH  070%=      5-min Rain = 0
KPG1 140855Z 03010KT 10/05 A3027 RMK A01 T01000048  RH  070%=      5-min Rain = 0
KPG1 140856Z 03009KT 10/05 A3027 RMK A01 T01010049  RH  070%=      5-min Rain = 0
KPG1 140857Z 03010KT 10/05 A3027 RMK A01 T01010049  RH  070%=      5-min Rain = 0
KPG1 140858Z 03010KT 10/05 A3027 RMK A01 T01000048  RH  070%=      5-min Rain = 0
KPG1 140859Z 03010KT 10/05 A3027 RMK A01 T01010049  RH  070%=      5-min Rain = 0
KPG1 140900Z 02010KT 10/05 A3027 RMK A01 T01000049  RH  070%=      5-min Rain = 0
KPG1 140901Z 02010KT 10/05 A3027 RMK A01 T01010049  RH  070%=      5-min Rain = 0
KPG1 140902Z 02009KT 10/05 A3027 RMK A01 T01000048  RH  070%=      5-min Rain = 0
KPG1 140903Z 02009KT 10/05 A3027 RMK A01 T01000049  RH  070%=      5-min Rain = 0
KPG1 140904Z 02009KT 10/05 A3027 RMK A01 T01000049  RH  070%=      5-min Rain = 0
KPG1 140905Z 02009KT 10/05 A3027 RMK A01 T01000049  RH  070%=      5-min Rain = 0
KPG1 140906Z 02009KT 10/05 A3027 RMK A01 T01000049  RH  070%=      5-min Rain = 0
KPG1 140907Z 02009KT 10/05 A3027 RMK A01 T01010050  RH  071%=      5-min Rain = 0
KPG1 140908Z 02009KT 10/05 A3027 RMK A01 T01000049  RH  071%=      5-min Rain = 0
KPG1 140909Z 02009KT 10/05 A3027 RMK A01 T01000049  RH  071%=      5-min Rain = 0
KPG1 140910Z 02009KT 10/05 A3026 RMK A01 T01000049  RH  071%=      5-min Rain = 0
KPG1 140911Z 02009KT 10/05 A3026 RMK A01 T01000049  RH  070%=      5-min Rain = 0
KPG1 140912Z 01009KT 10/05 A3026 RMK A01 T01010049  RH  070%=      5-min Rain = 0
KPG1 140913Z 02009KT 10/05 A3026 RMK A01 T01000049  RH  070%=      5-min Rain = 0
KPG1 140914Z 01009KT 10/05 A3026 RMK A01 T01000049  RH  070%=      5-min Rain = 0
KPG1 140915Z 01009KT 10/05 A3026 RMK A01 T01000049  RH  070%=      5-min Rain = 0
KPG1 140916Z 01009KT 10/05 A3026 RMK A01 T01000049  RH  070%=      5-min Rain = 0
KPG1 140917Z 01009KT 10/05 A3026 RMK A01 T01010049  RH  070%=      5-min Rain = 0
KPG1 140918Z 01009KT 10/05 A3026 RMK A01 T01000049  RH  070%=      5-min Rain = 0
KPG1 140919Z 01008KT 10/05 A3026 RMK A01 T01010049  RH  070%=      5-min Rain = 0
KPG1 140920Z 00007KT 10/05 A3026 RMK A01 T01000048  RH  070%=      5-min Rain = 0
KPG1 140921Z 01008KT 10/05 A3026 RMK A01 T01000048  RH  070%=      5-min Rain = 0
KPG1 140922Z 01008KT 10/05 A3026 RMK A01 T01000048  RH  070%=      5-min Rain = 0
KPG1 140923Z 01008KT 10/05 A3026 RMK A01 T01000049  RH  070%=      5-min Rain = 0
KPG1 140924Z 01008KT 10/05 A3026 RMK A01 T00990048  RH  071%=      5-min Rain = 0
KPG1 140925Z 02008KT 10/05 A3026 RMK A01 T00990049  RH  071%=      5-min Rain = 0
KPG1 140926Z 02008KT 10/05 A3026 RMK A01 T01000049  RH  071%=      5-min Rain = 0
KPG1 140927Z 02008KT 10/05 A3026 RMK A01 T00990049  RH  071%=      5-min Rain = 0
KPG1 140928Z 02008KT 10/05 A3026 RMK A01 T00990049  RH  071%=      5-min Rain = 0
KPG1 140929Z 02008KT 10/05 A3026 RMK A01 T00990049  RH  071%=      5-min Rain = 0
KPG1 140930Z 02008KT 10/05 A3026 RMK A01 T00990049  RH  071%=      5-min Rain = 0
KPG1 140931Z 02007KT 10/05 A3026 RMK A01 T00990049  RH  071%=      5-min Rain = 0
KPG1 140932Z 02006KT 10/05 A3026 RMK A01 T00990049  RH  071%=      5-min Rain = 0
KPG1 140933Z 01008KT 10/05 A3026 RMK A01 T00990048  RH  071%=      5-min Rain = 0
KPG1 140934Z 02008KT 10/05 A3026 RMK A01 T00990048  RH  071%=      5-min Rain = 0
KPG1 140935Z 02008KT 10/05 A3026 RMK A01 T00990048  RH  071%=      5-min Rain = 0
KPG1 140936Z 02008KT 10/05 A3026 RMK A01 T00990048  RH  071%=      5-min Rain = 0
KPG1 140937Z 02008KT 10/05 A3026 RMK A01 T00990048  RH  071%=      5-min Rain = 0
KPG1 140938Z 02007KT 10/05 A3026 RMK A01 T00990048  RH  071%=      5-min Rain = 0
KPG1 140939Z 02007KT 10/05 A3026 RMK A01 T00990049  RH  071%=      5-min Rain = 0
KPG1 140940Z 02008KT 10/05 A3026 RMK A01 T00990049  RH  071%=      5-min Rain = 0
KPG1 140941Z 01007KT 10/05 A3026 RMK A01 T00990049  RH  071%=      5-min Rain = 0
KPG1 140942Z 01007KT 10/05 A3026 RMK A01 T00990049  RH  071%=      5-min Rain = 0
KPG1 140943Z 02007KT 10/05 A3026 RMK A01 T00990049  RH  071%=      5-min Rain = 0
KPG1 140944Z 02007KT 10/05 A3026 RMK A01 T00990049  RH  071%=      5-min Rain = 0
KPG1 140945Z 02007KT 10/05 A3026 RMK A01 T00990049  RH  071%=      5-min Rain = 0
KPG1 140946Z 02007KT 10/05 A3026 RMK A01 T00980048  RH  071%=      5-min Rain = 0
KPG1 140947Z 02006KT 10/05 A3026 RMK A01 T00990048  RH  071%=      5-min Rain = 0
KPG1 140948Z 01006KT 10/05 A3026 RMK A01 T00990048  RH  071%=      5-min Rain = 0
KPG1 140949Z 01007KT 10/05 A3026 RMK A01 T00990048  RH  071%=      5-min Rain = 0
KPG1 140950Z 01007KT 10/05 A3026 RMK A01 T00990048  RH  071%=      5-min Rain = 0
KPG1 140951Z 01006KT 10/05 A3026 RMK A01 T00990048  RH  071%=      5-min Rain = 0
KPG1 140952Z 01007KT 10/05 A3026 RMK A01 T00990048  RH  071%=      5-min Rain = 0
KPG1 140953Z 02007KT 10/05 A3026 RMK A01 T00990048  RH  071%=      5-min Rain = 0
KPG1 140954Z 01007KT 10/05 A3026 RMK A01 T00990048  RH  071%=      5-min Rain = 0
KPG1 140955Z 02007KT 10/05 A3026 RMK A01 T00990048  RH  070%=      5-min Rain = 0
KPG1 140956Z 02007KT 10/05 A3026 RMK A01 T00990048  RH  070%=      5-min Rain = 0
KPG1 140957Z 02007KT 10/05 A3026 RMK A01 T00990048  RH  071%=      5-min Rain = 0
KPG1 140958Z 02007KT 10/05 A3026 RMK A01 T00980048  RH  071%=      5-min Rain = 0
KPG1 140959Z 02006KT 10/05 A3026 RMK A01 T00980048  RH  071%=      5-min Rain = 0
KPG1 141000Z 02007KT 10/05 A3026 RMK A01 T00970047  RH  071%=      5-min Rain = 0
KPG1 141001Z 02006KT 10/05 A3026 RMK A01 T00970048  RH  071%=      5-min Rain = 0
KPG1 141002Z 02006KT 10/05 A3026 RMK A01 T00970048  RH  071%=      5-min Rain = 0
KPG1 141003Z 02006KT 10/05 A3026 RMK A01 T00970048  RH  071%=      5-min Rain = 0
KPG1 141004Z 02006KT 10/05 A3026 RMK A01 T00970048  RH  071%=      5-min Rain = 0
KPG1 141005Z 02005KT 10/05 A3026 RMK A01 T00970047  RH  071%=      5-min Rain = 0
KPG1 141006Z 02005KT 10/05 A3026 RMK A01 T00970048  RH  071%=      5-min Rain = 0
KPG1 141007Z 02006KT 10/05 A3026 RMK A01 T00970048  RH  071%=      5-min Rain = 0
KPG1 141008Z 03006KT 10/05 A3026 RMK A01 T00970048  RH  071%=      5-min Rain = 0
KPG1 141009Z 03006KT 10/05 A3025 RMK A01 T00970047  RH  071%=      5-min Rain = 0
KPG1 141010Z 03006KT 10/05 A3025 RMK A01 T00960047  RH  071%=      5-min Rain = 0
KPG1 141011Z 03005KT 10/05 A3025 RMK A01 T00960047  RH  072%=      5-min Rain = 0
KPG1 141012Z 03005KT 10/05 A3026 RMK A01 T00950047  RH  072%=      5-min Rain = 0
KPG1 141013Z 03005KT 10/05 A3026 RMK A01 T00950047  RH  072%=      5-min Rain = 0
KPG1 141014Z 02005KT 10/05 A3026 RMK A01 T00950046  RH  072%=      5-min Rain = 0
KPG1 141015Z 03004KT 09/05 A3026 RMK A01 T00940046  RH  072%=      5-min Rain = 0
KPG1 141016Z 02004KT 09/05 A3026 RMK A01 T00940046  RH  072%=      5-min Rain = 0
KPG1 141017Z 01004KT 09/05 A3026 RMK A01 T00940046  RH  072%=      5-min Rain = 0
KPG1 141018Z 36004KT 09/05 A3025 RMK A01 T00930046  RH  072%=      5-min Rain = 0
KPG1 141019Z 36004KT 09/05 A3025 RMK A01 T00930046  RH  072%=      5-min Rain = 0
KPG1 141020Z 35005KT 09/05 A3025 RMK A01 T00940046  RH  072%=      5-min Rain = 0
KPG1 141021Z 36005KT 09/05 A3025 RMK A01 T00930046  RH  072%=      5-min Rain = 0
KPG1 141022Z 00005KT 09/05 A3025 RMK A01 T00940046  RH  072%=      5-min Rain = 0
KPG1 141023Z 36005KT 10/05 A3025 RMK A01 T00950046  RH  071%=      5-min Rain = 0
KPG1 141024Z 00005KT 10/05 A3025 RMK A01 T00950046  RH  071%=      5-min Rain = 0
KPG1 141025Z 00005KT 10/05 A3025 RMK A01 T00950046  RH  071%=      5-min Rain = 0
KPG1 141026Z 35004KT 10/05 A3025 RMK A01 T00950046  RH  071%=      5-min Rain = 0
KPG1 141027Z 36005KT 10/05 A3025 RMK A01 T00960045  RH  071%=      5-min Rain = 0
KPG1 141028Z 35004KT 10/05 A3025 RMK A01 T00960046  RH  071%=      5-min Rain = 0
KPG1 141029Z 34004KT 10/05 A3025 RMK A01 T00960046  RH  071%=      5-min Rain = 0
KPG1 141030Z 34004KT 10/05 A3025 RMK A01 T00960046  RH  071%=      5-min Rain = 0
KPG1 141031Z 33005KT 10/05 A3025 RMK A01 T00960045  RH  070%=      5-min Rain = 0
KPG1 141032Z 34005KT 10/05 A3025 RMK A01 T00970045  RH  070%=      5-min Rain = 0
KPG1 141033Z 33005KT 10/05 A3025 RMK A01 T00970045  RH  070%=      5-min Rain = 0
KPG1 141034Z 33005KT 10/05 A3026 RMK A01 T00970046  RH  070%=      5-min Rain = 0
KPG1 141035Z 33004KT 10/05 A3026 RMK A01 T00980046  RH  070%=      5-min Rain = 0
KPG1 141036Z 34004KT 10/05 A3026 RMK A01 T00980046  RH  070%=      5-min Rain = 0
KPG1 141037Z 34003KT 10/05 A3026 RMK A01 T00990046  RH  070%=      5-min Rain = 0
KPG1 141038Z 35003KT 10/05 A3026 RMK A01 T00990046  RH  070%=      5-min Rain = 0
KPG1 141039Z 36003KT 10/05 A3026 RMK A01 T00990046  RH  070%=      5-min Rain = 0
KPG1 141040Z 00003KT 10/05 A3026 RMK A01 T00990045  RH  069%=      5-min Rain = 0
KPG1 141041Z 01002KT 10/05 A3026 RMK A01 T00980045  RH  069%=      5-min Rain = 0
KPG1 141042Z 05002KT 10/04 A3026 RMK A01 T00960043  RH  069%=      5-min Rain = 0
KPG1 141043Z 06004KT 09/04 A3026 RMK A01 T00930041  RH  070%=      5-min Rain = 0
KPG1 141044Z 06004KT 09/04 A3026 RMK A01 T00910041  RH  071%=      5-min Rain = 0
KPG1 141045Z 06003KT 09/04 A3026 RMK A01 T00890042  RH  072%=      5-min Rain = 0
KPG1 141046Z 06003KT 09/04 A3026 RMK A01 T00890043  RH  073%=      5-min Rain = 0
KPG1 141047Z 07002KT 09/04 A3026 RMK A01 T00890043  RH  073%=      5-min Rain = 0
KPG1 141048Z 06002KT 09/04 A3026 RMK A01 T00890043  RH  073%=      5-min Rain = 0
KPG1 141049Z 03001KT 09/04 A3026 RMK A01 T00900044  RH  073%=      5-min Rain = 0
KPG1 141050Z 02002KT 09/04 A3026 RMK A01 T00890043  RH  073%=      5-min Rain = 0
KPG1 141051Z 02001KT 09/04 A3026 RMK A01 T00890042  RH  072%=      5-min Rain = 0
KPG1 141052Z 35002KT 09/04 A3026 RMK A01 T00880042  RH  073%=      5-min Rain = 0
KPG1 141053Z 36003KT 09/04 A3026 RMK A01 T00870042  RH  073%=      5-min Rain = 0
KPG1 141054Z 00002KT 09/04 A3026 RMK A01 T00870042  RH  074%=      5-min Rain = 0
KPG1 141055Z 00002KT 09/04 A3026 RMK A01 T00870043  RH  074%=      5-min Rain = 0
KPG1 141056Z 01002KT 09/04 A3026 RMK A01 T00880043  RH  073%=      5-min Rain = 0
KPG1 141057Z 03002KT 09/04 A3026 RMK A01 T00890044  RH  073%=      5-min Rain = 0
KPG1 141058Z 04002KT 09/04 A3026 RMK A01 T00900044  RH  073%=      5-min Rain = 0
KPG1 141059Z 03002KT 09/04 A3026 RMK A01 T00910044  RH  072%=      5-min Rain = 0
KPG1 141100Z 03002KT 09/04 A3026 RMK A01 T00900040  RH  071%=      5-min Rain = 0
KPG1 141101Z 02002KT 09/04 A3026 RMK A01 T00870041  RH  072%=      5-min Rain = 0
KPG1 141102Z 02002KT 09/04 A3026 RMK A01 T00860040  RH  073%=      5-min Rain = 0
KPG1 141103Z 02002KT 09/04 A3026 RMK A01 T00850040  RH  073%=      5-min Rain = 0
KPG1 141104Z 03002KT 09/04 A3026 RMK A01 T00850041  RH  074%=      5-min Rain = 0
KPG1 141105Z 03002KT 09/04 A3026 RMK A01 T00850041  RH  074%=      5-min Rain = 0
KPG1 141106Z 04002KT 08/04 A3026 RMK A01 T00840040  RH  074%=      5-min Rain = 0
KPG1 141107Z 04002KT 08/04 A3026 RMK A01 T00830040  RH  074%=      5-min Rain = 0
KPG1 141108Z 04002KT 08/04 A3026 RMK A01 T00840041  RH  075%=      5-min Rain = 0
KPG1 141109Z 04002KT 08/04 A3026 RMK A01 T00830041  RH  075%=      5-min Rain = 0
KPG1 141110Z 04002KT 08/04 A3026 RMK A01 T00830041  RH  075%=      5-min Rain = 0
KPG1 141111Z 04002KT 08/04 A3026 RMK A01 T00840042  RH  075%=      5-min Rain = 0
KPG1 141112Z 04002KT 08/04 A3026 RMK A01 T00840042  RH  075%=      5-min Rain = 0
KPG1 141113Z 03002KT 09/04 A3026 RMK A01 T00850042  RH  075%=      5-min Rain = 0
KPG1 141114Z 03002KT 09/04 A3026 RMK A01 T00850042  RH  074%=      5-min Rain = 0
KPG1 141115Z 04003KT 09/04 A3026 RMK A01 T00860042  RH  074%=      5-min Rain = 0
KPG1 141116Z 04002KT 09/04 A3026 RMK A01 T00850041  RH  074%=      5-min Rain = 0
KPG1 141117Z 05002KT 09/04 A3026 RMK A01 T00850042  RH  074%=      5-min Rain = 0
KPG1 141118Z 04003KT 09/04 A3025 RMK A01 T00850041  RH  074%=      5-min Rain = 0
KPG1 141119Z 04003KT 08/04 A3025 RMK A01 T00840041  RH  074%=      5-min Rain = 0
KPG1 141120Z 04003KT 08/04 A3025 RMK A01 T00840041  RH  074%=      5-min Rain = 0
KPG1 141121Z 05003KT 08/04 A3025 RMK A01 T00830040  RH  074%=      5-min Rain = 0
KPG1 141122Z 04003KT 08/04 A3025 RMK A01 T00820039  RH  074%=      5-min Rain = 0
KPG1 141123Z 03003KT 08/04 A3025 RMK A01 T00810039  RH  075%=      5-min Rain = 0
KPG1 141124Z 03003KT 08/04 A3025 RMK A01 T00810039  RH  075%=      5-min Rain = 0
KPG1 141125Z 02003KT 08/04 A3025 RMK A01 T00810039  RH  075%=      5-min Rain = 0
KPG1 141126Z 02002KT 08/04 A3026 RMK A01 T00800039  RH  075%=      5-min Rain = 0
KPG1 141127Z 02002KT 08/04 A3026 RMK A01 T00820042  RH  076%=      5-min Rain = 0
KPG1 141128Z 01003KT 08/04 A3025 RMK A01 T00830041  RH  075%=      5-min Rain = 0
KPG1 141129Z 02003KT 08/04 A3025 RMK A01 T00830040  RH  074%=      5-min Rain = 0
KPG1 141130Z 02002KT 08/04 A3026 RMK A01 T00830039  RH  074%=      5-min Rain = 0
KPG1 141131Z 01003KT 08/04 A3026 RMK A01 T00810037  RH  074%=      5-min Rain = 0
KPG1 141132Z 01003KT 08/04 A3026 RMK A01 T00800037  RH  074%=      5-min Rain = 0
KPG1 141133Z 00003KT 08/04 A3026 RMK A01 T00800038  RH  075%=      5-min Rain = 0
KPG1 141134Z 00003KT 08/04 A3026 RMK A01 T00810038  RH  074%=      5-min Rain = 0
KPG1 141135Z 01003KT 08/04 A3026 RMK A01 T00810037  RH  074%=      5-min Rain = 0
KPG1 141136Z 01003KT 08/04 A3026 RMK A01 T00800037  RH  074%=      5-min Rain = 0
KPG1 141137Z 00003KT 08/04 A3026 RMK A01 T00780036  RH  075%=      5-min Rain = 0
KPG1 141138Z 00004KT 08/04 A3025 RMK A01 T00780037  RH  075%=      5-min Rain = 0
KPG1 141139Z 36004KT 08/04 A3025 RMK A01 T00770037  RH  076%=      5-min Rain = 0
KPG1 141140Z 34002KT 08/04 A3025 RMK A01 T00770037  RH  076%=      5-min Rain = 0
KPG1 141141Z 33003KT 08/04 A3025 RMK A01 T00770038  RH  076%=      5-min Rain = 0
KPG1 141142Z 34004KT 08/04 A3025 RMK A01 T00780040  RH  077%=      5-min Rain = 0
KPG1 141143Z 34004KT 08/04 A3025 RMK A01 T00810041  RH  076%=      5-min Rain = 0
KPG1 141144Z 34003KT 08/04 A3026 RMK A01 T00820041  RH  075%=      5-min Rain = 0
KPG1 141145Z 35004KT 08/04 A3026 RMK A01 T00830040  RH  075%=      5-min Rain = 0
KPG1 141146Z 35004KT 08/04 A3026 RMK A01 T00820040  RH  075%=      5-min Rain = 0
KPG1 141147Z 35004KT 08/04 A3026 RMK A01 T00820042  RH  076%=      5-min Rain = 0
KPG1 141148Z 35005KT 09/05 A3026 RMK A01 T00850046  RH  076%=      5-min Rain = 0
KPG1 141149Z 36004KT 09/05 A3026 RMK A01 T00890048  RH  076%=      5-min Rain = 0
KPG1 141150Z 00004KT 09/05 A3026 RMK A01 T00920048  RH  074%=      5-min Rain = 0
KPG1 141151Z 01003KT 09/04 A3026 RMK A01 T00920043  RH  072%=      5-min Rain = 0
KPG1 141152Z 02003KT 09/04 A3025 RMK A01 T00880039  RH  072%=      5-min Rain = 0
KPG1 141153Z 03003KT 09/04 A3025 RMK A01 T00850038  RH  073%=      5-min Rain = 0
KPG1 141154Z 03003KT 08/04 A3026 RMK A01 T00830039  RH  074%=      5-min Rain = 0
KPG1 141155Z 04003KT 08/04 A3025 RMK A01 T00820039  RH  074%=      5-min Rain = 0
KPG1 141156Z 04004KT 08/04 A3025 RMK A01 T00810040  RH  075%=      5-min Rain = 0
KPG1 141157Z 04004KT 08/04 A3025 RMK A01 T00810041  RH  076%=      5-min Rain = 0
KPG1 141158Z 04004KT 08/04 A3025 RMK A01 T00820042  RH  076%=      5-min Rain = 0
KPG1 141159Z 04003KT 08/04 A3025 RMK A01 T00830041  RH  075%=      5-min Rain = 0
KPG1 141200Z 04003KT 08/04 A3025 RMK A01 T00830042  RH  075%=      5-min Rain = 0
KPG1 141201Z 05003KT 09/05 A3025 RMK A01 T00850045  RH  076%=      5-min Rain = 0
KPG1 141202Z 03003KT 09/05 A3025 RMK A01 T00870045  RH  075%=      5-min Rain = 0
KPG1 141203Z 02003KT 09/05 A3025 RMK A01 T00880045  RH  074%=      5-min Rain = 0
KPG1 141204Z 01003KT 09/04 A3025 RMK A01 T00870044  RH  074%=      5-min Rain = 0
KPG1 141205Z 35004KT 09/04 A3025 RMK A01 T00880044  RH  074%=      5-min Rain = 0
KPG1 141206Z 34003KT 09/04 A3026 RMK A01 T00880044  RH  074%=      5-min Rain = 0
KPG1 141207Z 35003KT 09/04 A3026 RMK A01 T00880044  RH  074%=      5-min Rain = 0
KPG1 141208Z 36003KT 09/04 A3026 RMK A01 T00880043  RH  074%=      5-min Rain = 0
KPG1 141209Z 01002KT 09/04 A3026 RMK A01 T00880044  RH  074%=      5-min Rain = 0
KPG1 141210Z 01002KT 09/04 A3026 RMK A01 T00870043  RH  074%=      5-min Rain = 0
KPG1 141211Z 01002KT 09/04 A3026 RMK A01 T00850040  RH  073%=      5-min Rain = 0
KPG1 141212Z 02002KT 08/04 A3025 RMK A01 T00840040  RH  074%=      5-min Rain = 0
KPG1 141213Z 03002KT 08/04 A3025 RMK A01 T00830040  RH  074%=      5-min Rain = 0
KPG1 141214Z 02002KT 08/04 A3025 RMK A01 T00820040  RH  074%=      5-min Rain = 0
KPG1 141215Z 03002KT 08/04 A3025 RMK A01 T00830041  RH  075%=      5-min Rain = 0
KPG1 141216Z 04002KT 08/04 A3025 RMK A01 T00830040  RH  075%=      5-min Rain = 0
KPG1 141217Z 04002KT 08/04 A3025 RMK A01 T00820040  RH  075%=      5-min Rain = 0
KPG1 141218Z 05002KT 08/04 A3025 RMK A01 T00820041  RH  076%=      5-min Rain = 0
KPG1 141219Z 04002KT 08/04 A3025 RMK A01 T00820042  RH  076%=      5-min Rain = 0
KPG1 141220Z 04002KT 08/04 A3025 RMK A01 T00830044  RH  076%=      5-min Rain = 0
KPG1 141221Z 04002KT 09/05 A3025 RMK A01 T00850046  RH  076%=      5-min Rain = 0
KPG1 141222Z 04002KT 09/05 A3025 RMK A01 T00870046  RH  075%=      5-min Rain = 0
KPG1 141223Z 04001KT 09/05 A3025 RMK A01 T00880045  RH  075%=      5-min Rain = 0
KPG1 141224Z 03001KT 09/04 A3025 RMK A01 T00890044  RH  074%=      5-min Rain = 0
KPG1 141225Z 01001KT 09/04 A3025 RMK A01 T00880043  RH  073%=      5-min Rain = 0
KPG1 141226Z 00001KT 09/04 A3025 RMK A01 T00860042  RH  074%=      5-min Rain = 0
KPG1 141227Z 00000KT 09/04 A3025 RMK A01 T00860042  RH  074%=      5-min Rain = 0
KPG1 141228Z 00000KT 09/04 A3026 RMK A01 T00860042  RH  074%=      5-min Rain = 0
KPG1 141229Z 00000KT 09/04 A3026 RMK A01 T00870043  RH  074%=      5-min Rain = 0
KPG1 141230Z 00000KT 09/04 A3026 RMK A01 T00880044  RH  074%=      5-min Rain = 0
KPG1 141231Z 00000KT 09/05 A3026 RMK A01 T00890045  RH  074%=      5-min Rain = 0
KPG1 141232Z 00000KT 09/05 A3026 RMK A01 T00900045  RH  074%=      5-min Rain = 0
KPG1 141233Z 00000KT 09/04 A3026 RMK A01 T00900042  RH  072%=      5-min Rain = 0
KPG1 141234Z 15001KT 09/04 A3025 RMK A01 T00880040  RH  072%=      5-min Rain = 0
KPG1 141235Z 17001KT 09/04 A3025 RMK A01 T00860042  RH  074%=      5-min Rain = 0
KPG1 141236Z 00000KT 09/04 A3025 RMK A01 T00860043  RH  074%=      5-min Rain = 0
KPG1 141237Z 00000KT 09/04 A3025 RMK A01 T00860042  RH  074%=      5-min Rain = 0
KPG1 141238Z 00000KT 09/04 A3025 RMK A01 T00870042  RH  074%=      5-min Rain = 0
KPG1 141239Z 00000KT 09/04 A3025 RMK A01 T00870042  RH  073%=      5-min Rain = 0
KPG1 141240Z 17001KT 09/04 A3025 RMK A01 T00880042  RH  073%=      5-min Rain = 0
KPG1 141241Z 17001KT 09/04 A3025 RMK A01 T00880042  RH  073%=      5-min Rain = 0
KPG1 141242Z 18001KT 09/04 A3025 RMK A01 T00880042  RH  073%=      5-min Rain = 0
KPG1 141243Z 19001KT 09/04 A3025 RMK A01 T00880042  RH  072%=      5-min Rain = 0
KPG1 141244Z 20002KT 09/04 A3025 RMK A01 T00890042  RH  072%=      5-min Rain = 0
KPG1 141245Z 20002KT 09/04 A3025 RMK A01 T00890042  RH  072%=      5-min Rain = 0
KPG1 141246Z 19002KT 09/04 A3025 RMK A01 T00890042  RH  072%=      5-min Rain = 0
KPG1 141247Z 20002KT 09/04 A3025 RMK A01 T00900042  RH  072%=      5-min Rain = 0
KPG1 141248Z 21002KT 09/04 A3025 RMK A01 T00900042  RH  072%=      5-min Rain = 0
KPG1 141249Z 23002KT 09/04 A3025 RMK A01 T00900042  RH  072%=      5-min Rain = 0
KPG1 141250Z 23001KT 09/04 A3025 RMK A01 T00880040  RH  072%=      5-min Rain = 0
KPG1 141251Z 23002KT 09/04 A3025 RMK A01 T00870040  RH  072%=      5-min Rain = 0
KPG1 141252Z 23002KT 09/04 A3025 RMK A01 T00860039  RH  072%=      5-min Rain = 0
KPG1 141253Z 23002KT 08/04 A3025 RMK A01 T00840036  RH  072%=      5-min Rain = 0
KPG1 141254Z 22001KT 08/04 A3025 RMK A01 T00820037  RH  073%=      5-min Rain = 0
KPG1 141255Z 16001KT 08/04 A3025 RMK A01 T00810038  RH  074%=      5-min Rain = 0
KPG1 141256Z 15000KT 08/04 A3025 RMK A01 T00810037  RH  074%=      5-min Rain = 0
KPG1 141257Z 19001KT 08/04 A3025 RMK A01 T00810038  RH  074%=      5-min Rain = 0
KPG1 141258Z 22001KT 08/04 A3025 RMK A01 T00820040  RH  075%=      5-min Rain = 0
KPG1 141259Z 23001KT 08/04 A3025 RMK A01 T00830040  RH  075%=      5-min Rain = 0
KPG1 141300Z 24001KT 08/04 A3025 RMK A01 T00830040  RH  074%=      5-min Rain = 0
KPG1 141301Z 24001KT 08/04 A3025 RMK A01 T00830040  RH  074%=      5-min Rain = 0
KPG1 141302Z 24001KT 08/04 A3025 RMK A01 T00830040  RH  074%=      5-min Rain = 0
KPG1 141303Z 23001KT 08/04 A3025 RMK A01 T00830040  RH  074%=      5-min Rain = 0
KPG1 141304Z 23001KT 08/04 A3025 RMK A01 T00840041  RH  074%=      5-min Rain = 0
KPG1 141305Z 21001KT 09/04 A3025 RMK A01 T00850040  RH  073%=      5-min Rain = 0
KPG1 141306Z 18001KT 08/04 A3025 RMK A01 T00840037  RH  072%=      5-min Rain = 0
KPG1 141307Z 21001KT 08/04 A3025 RMK A01 T00830037  RH  073%=      5-min Rain = 0
KPG1 141308Z 22002KT 08/04 A3025 RMK A01 T00820039  RH  074%=      5-min Rain = 0
KPG1 141309Z 23002KT 08/04 A3025 RMK A01 T00830039  RH  074%=      5-min Rain = 0
KPG1 141310Z 23002KT 08/04 A3025 RMK A01 T00830039  RH  073%=      5-min Rain = 0
KPG1 141311Z 23002KT 08/04 A3025 RMK A01 T00840039  RH  073%=      5-min Rain = 0
KPG1 141312Z 23002KT 08/04 A3025 RMK A01 T00840039  RH  073%=      5-min Rain = 0
KPG1 141313Z 22002KT 08/04 A3025 RMK A01 T00840039  RH  073%=      5-min Rain = 0
KPG1 141314Z 20001KT 08/04 A3025 RMK A01 T00840039  RH  073%=      5-min Rain = 0
KPG1 141315Z 16001KT 08/04 A3025 RMK A01 T00840038  RH  073%=      5-min Rain = 0
KPG1 141316Z 15002KT 08/04 A3026 RMK A01 T00840037  RH  073%=      5-min Rain = 0
KPG1 141317Z 15003KT 08/04 A3026 RMK A01 T00820037  RH  073%=      5-min Rain = 0
KPG1 141318Z 14003KT 08/04 A3026 RMK A01 T00820038  RH  074%=      5-min Rain = 0
KPG1 141319Z 15002KT 08/04 A3026 RMK A01 T00830039  RH  074%=      5-min Rain = 0
KPG1 141320Z 16002KT 08/04 A3025 RMK A01 T00840040  RH  074%=      5-min Rain = 0
KPG1 141321Z 19001KT 08/04 A3025 RMK A01 T00840040  RH  073%=      5-min Rain = 0
KPG1 141322Z 21001KT 09/04 A3025 RMK A01 T00850040  RH  073%=      5-min Rain = 0
KPG1 141323Z 21001KT 09/04 A3025 RMK A01 T00850040  RH  073%=      5-min Rain = 0
KPG1 141324Z 21002KT 09/04 A3026 RMK A01 T00870041  RH  073%=      5-min Rain = 0
KPG1 141325Z 22002KT 09/04 A3026 RMK A01 T00880041  RH  072%=      5-min Rain = 0
KPG1 141326Z 22002KT 09/04 A3026 RMK A01 T00890041  RH  071%=      5-min Rain = 0
KPG1 141327Z 22002KT 09/04 A3026 RMK A01 T00900041  RH  071%=      5-min Rain = 0
KPG1 141328Z 21002KT 09/04 A3026 RMK A01 T00910041  RH  071%=      5-min Rain = 0
KPG1 141329Z 21002KT 09/04 A3026 RMK A01 T00920041  RH  070%=      5-min Rain = 0
KPG1 141330Z 20002KT 09/04 A3026 RMK A01 T00930041  RH  070%=      5-min Rain = 0
KPG1 141331Z 18002KT 09/04 A3026 RMK A01 T00940041  RH  070%=      5-min Rain = 0
KPG1 141332Z 18001KT 09/04 A3026 RMK A01 T00940041  RH  070%=      5-min Rain = 0
KPG1 141333Z 18001KT 10/04 A3026 RMK A01 T00950041  RH  069%=      5-min Rain = 0
KPG1 141334Z 18001KT 10/04 A3026 RMK A01 T00950041  RH  069%=      5-min Rain = 0
KPG1 141335Z 19002KT 10/04 A3026 RMK A01 T00950041  RH  069%=      5-min Rain = 0
KPG1 141336Z 21001KT 10/04 A3026 RMK A01 T00950041  RH  069%=      5-min Rain = 0
KPG1 141337Z 22001KT 10/04 A3026 RMK A01 T00950041  RH  069%=      5-min Rain = 0
KPG1 141338Z 23001KT 09/04 A3026 RMK A01 T00940041  RH  069%=      5-min Rain = 0
KPG1 141339Z 23001KT 09/04 A3026 RMK A01 T00940041  RH  069%=      5-min Rain = 0
KPG1 141340Z 20001KT 09/04 A3026 RMK A01 T00930040  RH  070%=      5-min Rain = 0
KPG1 141341Z 19001KT 09/04 A3026 RMK A01 T00930041  RH  070%=      5-min Rain = 0
KPG1 141342Z 19001KT 09/04 A3026 RMK A01 T00930041  RH  070%=      5-min Rain = 0
KPG1 141343Z 18000KT 09/04 A3026 RMK A01 T00930041  RH  070%=      5-min Rain = 0
KPG1 141344Z 18000KT 09/04 A3026 RMK A01 T00920040  RH  070%=      5-min Rain = 0
KPG1 141345Z 18001KT 09/04 A3026 RMK A01 T00920041  RH  070%=      5-min Rain = 0
KPG1 141346Z 18000KT 09/04 A3026 RMK A01 T00920041  RH  070%=      5-min Rain = 0
KPG1 141347Z 00000KT 09/04 A3025 RMK A01 T00920041  RH  071%=      5-min Rain = 0
KPG1 141348Z 00000KT 09/04 A3025 RMK A01 T00920041  RH  071%=      5-min Rain = 0
KPG1 141349Z 00000KT 09/04 A3025 RMK A01 T00920041  RH  070%=      5-min Rain = 0
KPG1 141350Z 00000KT 09/04 A3025 RMK A01 T00920041  RH  070%=      5-min Rain = 0
KPG1 141351Z 00000KT 09/04 A3025 RMK A01 T00930041  RH  070%=      5-min Rain = 0
KPG1 141352Z 18000KT 09/04 A3025 RMK A01 T00930041  RH  070%=      5-min Rain = 0
KPG1 141353Z 18000KT 09/04 A3025 RMK A01 T00930041  RH  070%=      5-min Rain = 0
KPG1 141354Z 00000KT 09/04 A3025 RMK A01 T00930041  RH  070%=      5-min Rain = 0
KPG1 141355Z 26000KT 09/04 A3025 RMK A01 T00930041  RH  070%=      5-min Rain = 0
KPG1 141356Z 25001KT 09/04 A3025 RMK A01 T00940041  RH  069%=      5-min Rain = 0
KPG1 141357Z 23001KT 09/04 A3025 RMK A01 T00940041  RH  069%=      5-min Rain = 0
KPG1 141358Z 22002KT 10/04 A3025 RMK A01 T00950041  RH  069%=      5-min Rain = 0
KPG1 141359Z 22002KT 10/04 A3025 RMK A01 T00950040  RH  069%=      5-min Rain = 0
KPG1 141400Z 22001KT 10/04 A3025 RMK A01 T00960041  RH  069%=      5-min Rain = 0
KPG1 141401Z 21001KT 10/04 A3025 RMK A01 T00960041  RH  068%=      5-min Rain = 0
KPG1 141402Z 18001KT 10/04 A3025 RMK A01 T00960040  RH  068%=      5-min Rain = 0
KPG1 141403Z 18000KT 10/04 A3025 RMK A01 T00950039  RH  068%=      5-min Rain = 0
KPG1 141404Z 18001KT 09/04 A3025 RMK A01 T00920037  RH  068%=      5-min Rain = 0
KPG1 141405Z 18001KT 09/04 A3025 RMK A01 T00900037  RH  069%=      5-min Rain = 0
KPG1 141406Z 18001KT 09/04 A3025 RMK A01 T00890038  RH  070%=      5-min Rain = 0
KPG1 141407Z 18002KT 09/04 A3025 RMK A01 T00890039  RH  071%=      5-min Rain = 0
KPG1 141408Z 18002KT 09/04 A3025 RMK A01 T00910040  RH  071%=      5-min Rain = 0
KPG1 141409Z 17002KT 09/04 A3025 RMK A01 T00910040  RH  070%=      5-min Rain = 0
KPG1 141410Z 18002KT 09/04 A3025 RMK A01 T00910040  RH  070%=      5-min Rain = 0
KPG1 141411Z 19002KT 09/04 A3025 RMK A01 T00910039  RH  070%=      5-min Rain = 0
KPG1 141412Z 20002KT 09/04 A3025 RMK A01 T00900039  RH  071%=      5-min Rain = 0
KPG1 141413Z 21002KT 09/04 A3025 RMK A01 T00890039  RH  071%=      5-min Rain = 0
KPG1 141414Z 23002KT 09/04 A3025 RMK A01 T00870038  RH  071%=      5-min Rain = 0
KPG1 141415Z 25002KT 09/04 A3025 RMK A01 T00860038  RH  072%=      5-min Rain = 0
KPG1 141416Z 26001KT 09/04 A3025 RMK A01 T00850038  RH  072%=      5-min Rain = 0
KPG1 141417Z 25002KT 08/04 A3025 RMK A01 T00840038  RH  073%=      5-min Rain = 0
KPG1 141418Z 25001KT 08/04 A3025 RMK A01 T00830038  RH  073%=      5-min Rain = 0
KPG1 141419Z 26001KT 08/04 A3025 RMK A01 T00830039  RH  073%=      5-min Rain = 0
KPG1 141420Z 32000KT 08/04 A3025 RMK A01 T00840039  RH  073%=      5-min Rain = 0
KPG1 141421Z 03001KT 08/04 A3025 RMK A01 T00830038  RH  073%=      5-min Rain = 0
KPG1 141422Z 05001KT 08/04 A3025 RMK A01 T00830037  RH  073%=      5-min Rain = 0
KPG1 141423Z 05001KT 08/04 A3025 RMK A01 T00820038  RH  074%=      5-min Rain = 0
KPG1 141424Z 02001KT 08/04 A3025 RMK A01 T00820039  RH  074%=      5-min Rain = 0
KPG1 141425Z 00002KT 08/04 A3025 RMK A01 T00840040  RH  074%=      5-min Rain = 0
KPG1 141426Z 02002KT 08/04 A3025 RMK A01 T00840040  RH  074%=      5-min Rain = 0
KPG1 141427Z 02002KT 09/04 A3025 RMK A01 T00850040  RH  073%=      5-min Rain = 0
KPG1 141428Z 04003KT 09/04 A3025 RMK A01 T00850040  RH  073%=      5-min Rain = 0
KPG1 141429Z 03004KT 09/04 A3025 RMK A01 T00850039  RH  073%=      5-min Rain = 0
KPG1 141430Z 02003KT 09/04 A3025 RMK A01 T00850039  RH  073%=      5-min Rain = 0
KPG1 141431Z 01003KT 09/04 A3025 RMK A01 T00850039  RH  073%=      5-min Rain = 0
KPG1 141432Z 01003KT 09/04 A3025 RMK A01 T00850039  RH  073%=      5-min Rain = 0
KPG1 141433Z 00003KT 09/04 A3025 RMK A01 T00850040  RH  073%=      5-min Rain = 0
KPG1 141434Z 00003KT 09/04 A3025 RMK A01 T00860040  RH  073%=      5-min Rain = 0
KPG1 141435Z 00003KT 09/04 A3025 RMK A01 T00880041  RH  072%=      5-min Rain = 0
KPG1 141436Z 02003KT 09/04 A3025 RMK A01 T00890041  RH  072%=      5-min Rain = 0
KPG1 141437Z 02003KT 09/04 A3025 RMK A01 T00900041  RH  072%=      5-min Rain = 0
KPG1 141438Z 01003KT 09/04 A3025 RMK A01 T00900041  RH  072%=      5-min Rain = 0
KPG1 141439Z 02003KT 09/04 A3025 RMK A01 T00910043  RH  072%=      5-min Rain = 0
KPG1 141440Z 03003KT 09/04 A3025 RMK A01 T00920043  RH  071%=      5-min Rain = 0
KPG1 141441Z 02003KT 09/04 A3025 RMK A01 T00920043  RH  071%=      5-min Rain = 0
KPG1 141442Z 02003KT 09/04 A3025 RMK A01 T00930043  RH  071%=      5-min Rain = 0
KPG1 141443Z 00003KT 09/04 A3025 RMK A01 T00930043  RH  071%=      5-min Rain = 0
KPG1 141444Z 36003KT 10/04 A3025 RMK A01 T00950044  RH  071%=      5-min Rain = 0
KPG1 141445Z 01004KT 10/05 A3025 RMK A01 T00980045  RH  070%=      5-min Rain = 0
KPG1 141446Z 01004KT 10/05 A3025 RMK A01 T01000046  RH  069%=      5-min Rain = 0
KPG1 141447Z 02004KT 10/05 A3025 RMK A01 T01020047  RH  069%=      5-min Rain = 0
KPG1 141448Z 01004KT 11/05 A3025 RMK A01 T01050048  RH  068%=      5-min Rain = 0
KPG1 141449Z 02003KT 11/05 A3025 RMK A01 T01060047  RH  067%=      5-min Rain = 0
KPG1 141450Z 01005KT 11/05 A3025 RMK A01 T01070047  RH  066%=      5-min Rain = 0
KPG1 141451Z 00005KT 11/05 A3025 RMK A01 T01100047  RH  065%=      5-min Rain = 0
KPG1 141452Z 01004KT 11/05 A3025 RMK A01 T01120048  RH  065%=      5-min Rain = 0
KPG1 141453Z 02003KT 12/05 A3025 RMK A01 T01150049  RH  064%=      5-min Rain = 0
KPG1 141454Z 02005KT 12/05 A3025 RMK A01 T01160050  RH  064%=      5-min Rain = 0
KPG1 141455Z 02006KT 12/05 A3025 RMK A01 T01160050  RH  064%=      5-min Rain = 0
KPG1 141456Z 01007KT 12/05 A3025 RMK A01 T01150050  RH  065%=      5-min Rain = 0
KPG1 141457Z 02007KT 11/05 A3025 RMK A01 T01120050  RH  066%=      5-min Rain = 0
KPG1 141458Z 02007KT 11/05 A3025 RMK A01 T01100050  RH  066%=      5-min Rain = 0
KPG1 141459Z 02007KT 11/05 A3025 RMK A01 T01080050  RH  067%=      5-min Rain = 0
KPG1 141500Z 02006KT 11/05 A3025 RMK A01 T01070050  RH  067%=      5-min Rain = 0
KPG1 141501Z 02006KT 11/05 A3025 RMK A01 T01070050  RH  068%=      5-min Rain = 0
KPG1 141502Z 02006KT 11/05 A3025 RMK A01 T01060050  RH  068%=      5-min Rain = 0
KPG1 141503Z 03006KT 11/05 A3025 RMK A01 T01060050  RH  068%=      5-min Rain = 0
KPG1 141504Z 03006KT 11/05 A3025 RMK A01 T01060050  RH  068%=      5-min Rain = 0
KPG1 141505Z 04005KT 11/05 A3025 RMK A01 T01060050  RH  068%=      5-min Rain = 0
KPG1 141506Z 04006KT 11/05 A3026 RMK A01 T01050049  RH  069%=      5-min Rain = 0
KPG1 141507Z 04005KT 10/05 A3026 RMK A01 T01040049  RH  069%=      5-min Rain = 0
KPG1 141508Z 04006KT 10/05 A3026 RMK A01 T01040049  RH  069%=      5-min Rain = 0
KPG1 141509Z 04006KT 10/05 A3026 RMK A01 T01040049  RH  069%=      5-min Rain = 0
KPG1 141510Z 03006KT 10/05 A3026 RMK A01 T01040050  RH  069%=      5-min Rain = 0
KPG1 141511Z 03006KT 10/05 A3026 RMK A01 T01040050  RH  069%=      5-min Rain = 0
KPG1 141512Z 03004KT 10/05 A3026 RMK A01 T01040050  RH  069%=      5-min Rain = 0
KPG1 141513Z 03004KT 10/05 A3026 RMK A01 T01040050  RH  069%=      5-min Rain = 0
KPG1 141514Z 02004KT 10/05 A3026 RMK A01 T01040050  RH  069%=      5-min Rain = 0
KPG1 141515Z 02003KT 10/05 A3026 RMK A01 T01040050  RH  069%=      5-min Rain = 0
KPG1 141516Z 02003KT 11/05 A3026 RMK A01 T01050050  RH  069%=      5-min Rain = 0
KPG1 141517Z 02004KT 11/05 A3026 RMK A01 T01060051  RH  069%=      5-min Rain = 0
KPG1 141518Z 02004KT 11/05 A3026 RMK A01 T01060051  RH  068%=      5-min Rain = 0
KPG1 141519Z 02004KT 11/05 A3026 RMK A01 T01070051  RH  068%=      5-min Rain = 0
KPG1 141520Z 01004KT 11/05 A3026 RMK A01 T01060051  RH  068%=      5-min Rain = 0
KPG1 141521Z 02003KT 11/05 A3026 RMK A01 T01060050  RH  068%=      5-min Rain = 0
KPG1 141522Z 02003KT 11/05 A3026 RMK A01 T01070050  RH  068%=      5-min Rain = 0
KPG1 141523Z 02003KT 11/05 A3026 RMK A01 T01070051  RH  068%=      5-min Rain = 0
KPG1 141524Z 03002KT 11/05 A3026 RMK A01 T01090052  RH  068%=      5-min Rain = 0
KPG1 141525Z 03002KT 11/05 A3026 RMK A01 T01100052  RH  067%=      5-min Rain = 0
KPG1 141526Z 02001KT 11/05 A3027 RMK A01 T01110051  RH  067%=      5-min Rain = 0
KPG1 141527Z 02000KT 11/05 A3027 RMK A01 T01110051  RH  066%=      5-min Rain = 0
KPG1 141528Z 25002KT 11/05 A3027 RMK A01 T01120050  RH  065%=      5-min Rain = 0
KPG1 141529Z 24003KT 11/05 A3027 RMK A01 T01130048  RH  064%=      5-min Rain = 0
KPG1 141530Z 24004KT 11/05 A3027 RMK A01 T01140047  RH  064%=      5-min Rain = 0
KPG1 141531Z 23003KT 11/05 A3027 RMK A01 T01130045  RH  063%=      5-min Rain = 0
KPG1 141532Z 23004KT 11/05 A3027 RMK A01 T01130046  RH  063%=      5-min Rain = 0
KPG1 141533Z 23003KT 11/05 A3027 RMK A01 T01120045  RH  063%=      5-min Rain = 0
KPG1 141534Z 23003KT 11/04 A3027 RMK A01 T01110043  RH  063%=      5-min Rain = 0
KPG1 141535Z 24004KT 11/04 A3027 RMK A01 T01100043  RH  063%=      5-min Rain = 0
KPG1 141536Z 23003KT 11/04 A3027 RMK A01 T01100043  RH  063%=      5-min Rain = 0
KPG1 141537Z 22004KT 11/04 A3027 RMK A01 T01100043  RH  063%=      5-min Rain = 0
KPG1 141538Z 24003KT 11/04 A3027 RMK A01 T01090043  RH  063%=      5-min Rain = 0
KPG1 141539Z 25003KT 11/04 A3027 RMK A01 T01090042  RH  064%=      5-min Rain = 0
KPG1 141540Z 26003KT 11/04 A3027 RMK A01 T01090043  RH  064%=      5-min Rain = 0
KPG1 141541Z 27003KT 11/04 A3027 RMK A01 T01090043  RH  064%=      5-min Rain = 0
KPG1 141542Z 25002KT 11/04 A3028 RMK A01 T01090043  RH  064%=      5-min Rain = 0
KPG1 141543Z 26003KT 11/04 A3028 RMK A01 T01100043  RH  063%=      5-min Rain = 0
KPG1 141544Z 26003KT 11/04 A3028 RMK A01 T01100043  RH  063%=      5-min Rain = 0
KPG1 141545Z 26003KT 11/04 A3028 RMK A01 T01100043  RH  063%=      5-min Rain = 0
KPG1 141546Z 24002KT 11/04 A3028 RMK A01 T01100043  RH  063%=      5-min Rain = 0
KPG1 141547Z 25002KT 11/04 A3028 RMK A01 T01110043  RH  063%=      5-min Rain = 0
KPG1 141548Z 23002KT 11/04 A3028 RMK A01 T01120043  RH  063%=      5-min Rain = 0
KPG1 141549Z 23002KT 11/04 A3028 RMK A01 T01120043  RH  062%=      5-min Rain = 0
KPG1 141550Z 21002KT 11/04 A3028 RMK A01 T01120043  RH  062%=      5-min Rain = 0
KPG1 141551Z 22002KT 11/04 A3028 RMK A01 T01140044  RH  062%=      5-min Rain = 0
KPG1 141552Z 20001KT 12/04 A3028 RMK A01 T01160043  RH  061%=      5-min Rain = 0
KPG1 141553Z 19002KT 12/04 A3028 RMK A01 T01160043  RH  061%=      5-min Rain = 0
KPG1 141554Z 19002KT 12/04 A3028 RMK A01 T01160042  RH  060%=      5-min Rain = 0
KPG1 141555Z 18002KT 12/04 A3028 RMK A01 T01160042  RH  060%=      5-min Rain = 0
KPG1 141556Z 17001KT 12/04 A3028 RMK A01 T01170042  RH  060%=      5-min Rain = 0
KPG1 141557Z 18001KT 12/04 A3028 RMK A01 T01180041  RH  060%=      5-min Rain = 0
KPG1 141558Z 22002KT 12/04 A3028 RMK A01 T01190042  RH  059%=      5-min Rain = 0
KPG1 141559Z 22002KT 12/04 A3028 RMK A01 T01210042  RH  059%=      5-min Rain = 0
KPG1 141600Z 18002KT 12/04 A3028 RMK A01 T01210041  RH  058%=      5-min Rain = 0
KPG1 141601Z 17001KT 12/04 A3028 RMK A01 T01210040  RH  058%=      5-min Rain = 0
KPG1 141602Z 19001KT 12/04 A3028 RMK A01 T01220040  RH  057%=      5-min Rain = 0
KPG1 141603Z 20002KT 12/04 A3028 RMK A01 T01240041  RH  057%=      5-min Rain = 0
KPG1 141604Z 22002KT 12/04 A3028 RMK A01 T01240041  RH  057%=      5-min Rain = 0
KPG1 141605Z 20002KT 13/04 A3028 RMK A01 T01250041  RH  057%=      5-min Rain = 0
KPG1 141606Z 20002KT 13/04 A3028 RMK A01 T01270040  RH  055%=      5-min Rain = 0
KPG1 141607Z 21002KT 13/04 A3028 RMK A01 T01270039  RH  055%=      5-min Rain = 0
KPG1 141608Z 23002KT 13/04 A3028 RMK A01 T01270038  RH  055%=      5-min Rain = 0
KPG1 141609Z 24003KT 13/04 A3028 RMK A01 T01270038  RH  054%=      5-min Rain = 0
KPG1 141610Z 25002KT 13/04 A3028 RMK A01 T01270038  RH  054%=      5-min Rain = 0
KPG1 141611Z 23002KT 13/04 A3028 RMK A01 T01270037  RH  054%=      5-min Rain = 0
KPG1 141612Z 20004KT 13/04 A3028 RMK A01 T01280037  RH  054%=      5-min Rain = 0
KPG1 141613Z 19004KT 13/04 A3028 RMK A01 T01300038  RH  054%=      5-min Rain = 0
KPG1 141614Z 20003KT 13/04 A3028 RMK A01 T01320038  RH  053%=      5-min Rain = 0
KPG1 141615Z 20003KT 13/04 A3028 RMK A01 T01310036  RH  052%=      5-min Rain = 0
KPG1 141616Z 19002KT 13/04 A3028 RMK A01 T01310037  RH  053%=      5-min Rain = 0
KPG1 141617Z 20002KT 13/04 A3028 RMK A01 T01320038  RH  053%=      5-min Rain = 0
KPG1 141618Z 20003KT 13/04 A3028 RMK A01 T01330038  RH  052%=      5-min Rain = 0
KPG1 141619Z 19003KT 13/04 A3028 RMK A01 T01340037  RH  052%=      5-min Rain = 0
KPG1 141620Z 19003KT 13/04 A3028 RMK A01 T01340036  RH  051%=      5-min Rain = 0
KPG1 141621Z 17001KT 13/04 A3028 RMK A01 T01340036  RH  051%=      5-min Rain = 0
KPG1 141622Z 22002KT 14/04 A3028 RMK A01 T01350036  RH  051%=      5-min Rain = 0
KPG1 141623Z 20002KT 14/04 A3028 RMK A01 T01360036  RH  051%=      5-min Rain = 0
KPG1 141624Z 15002KT 14/04 A3028 RMK A01 T01380038  RH  051%=      5-min Rain = 0
KPG1 141625Z 15002KT 14/04 A3028 RMK A01 T01420039  RH  050%=      5-min Rain = 0
KPG1 141626Z 17002KT 14/04 A3028 RMK A01 T01430038  RH  049%=      5-min Rain = 0
KPG1 141627Z 21003KT 15/04 A3028 RMK A01 T01450036  RH  048%=      5-min Rain = 0
KPG1 141628Z 21003KT 15/04 A3028 RMK A01 T01450036  RH  048%=      5-min Rain = 0
KPG1 141629Z 21002KT 14/04 A3028 RMK A01 T01440035  RH  048%=      5-min Rain = 0
KPG1 141630Z 19003KT 14/04 A3028 RMK A01 T01430036  RH  049%=      5-min Rain = 0
KPG1 141631Z 17003KT 14/04 A3028 RMK A01 T01430036  RH  048%=      5-min Rain = 0
KPG1 141632Z 16003KT 15/04 A3028 RMK A01 T01450037  RH  048%=      5-min Rain = 0
KPG1 141633Z 16004KT 15/04 A3027 RMK A01 T01480038  RH  048%=      5-min Rain = 0
KPG1 141634Z 16003KT 15/04 A3027 RMK A01 T01490037  RH  047%=      5-min Rain = 0
KPG1 141635Z 18003KT 15/04 A3027 RMK A01 T01480037  RH  047%=      5-min Rain = 0
KPG1 141636Z 14002KT 15/04 A3027 RMK A01 T01490038  RH  047%=      5-min Rain = 0
KPG1 141637Z 13002KT 15/04 A3027 RMK A01 T01500037  RH  047%=      5-min Rain = 0
KPG1 141638Z 16002KT 15/04 A3027 RMK A01 T01500036  RH  046%=      5-min Rain = 0
KPG1 141639Z 15002KT 15/04 A3027 RMK A01 T01490037  RH  047%=      5-min Rain = 0
KPG1 141640Z 17003KT 15/04 A3027 RMK A01 T01510038  RH  047%=      5-min Rain = 0
KPG1 141641Z 17003KT 15/04 A3027 RMK A01 T01530037  RH  046%=      5-min Rain = 0
KPG1 141642Z 18003KT 15/04 A3027 RMK A01 T01520036  RH  046%=      5-min Rain = 0
KPG1 141643Z 16003KT 15/04 A3027 RMK A01 T01510036  RH  046%=      5-min Rain = 0
KPG1 141644Z 19003KT 15/04 A3027 RMK A01 T01530036  RH  046%=      5-min Rain = 0
KPG1 141645Z 19003KT 15/04 A3027 RMK A01 T01540035  RH  045%=      5-min Rain = 0
KPG1 141646Z 17003KT 15/03 A3027 RMK A01 T01530034  RH  045%=      5-min Rain = 0
KPG1 141647Z 17003KT 15/03 A3027 RMK A01 T01530032  RH  044%=      5-min Rain = 0
KPG1 141648Z 17003KT 15/03 A3027 RMK A01 T01540033  RH  044%=      5-min Rain = 0
KPG1 141649Z 17003KT 16/04 A3027 RMK A01 T01560035  RH  044%=      5-min Rain = 0
KPG1 141650Z 18003KT 16/04 A3027 RMK A01 T01590035  RH  044%=      5-min Rain = 0
KPG1 141651Z 21002KT 16/04 A3027 RMK A01 T01610036  RH  043%=      5-min Rain = 0
KPG1 141652Z 19001KT 16/04 A3027 RMK A01 T01610035  RH  043%=      5-min Rain = 0
KPG1 141653Z 17003KT 16/04 A3027 RMK A01 T01610035  RH  043%=      5-min Rain = 0
KPG1 141654Z 17003KT 16/03 A3027 RMK A01 T01620033  RH  042%=      5-min Rain = 0
KPG1 141655Z 19002KT 16/03 A3027 RMK A01 T01620031  RH  041%=      5-min Rain = 0
KPG1 141656Z 16002KT 16/03 A3027 RMK A01 T01620033  RH  042%=      5-min Rain = 0
KPG1 141657Z 14003KT 17/03 A3027 RMK A01 T01650031  RH  041%=      5-min Rain = 0
KPG1 141658Z 17004KT 17/03 A3027 RMK A01 T01660031  RH  040%=      5-min Rain = 0
KPG1 141659Z 17002KT 17/03 A3027 RMK A01 T01670030  RH  040%=      5-min Rain = 0
KPG1 141700Z 22002KT 17/03 A3027 RMK A01 T01660030  RH  040%=      5-min Rain = 0
KPG1 141701Z 17002KT 17/03 A3027 RMK A01 T01670030  RH  040%=      5-min Rain = 0
KPG1 141702Z 16002KT 17/03 A3027 RMK A01 T01680030  RH  040%=      5-min Rain = 0
KPG1 141703Z 15002KT 17/03 A3027 RMK A01 T01690029  RH  039%=      5-min Rain = 0
KPG1 141704Z 19003KT 17/03 A3027 RMK A01 T01700029  RH  039%=      5-min Rain = 0
KPG1 141705Z 20004KT 17/03 A3027 RMK A01 T01710030  RH  039%=      5-min Rain = 0
KPG1 141706Z 19003KT 17/03 A3027 RMK A01 T01710029  RH  039%=      5-min Rain = 0
KPG1 141707Z 19002KT 17/03 A3027 RMK A01 T01710028  RH  038%=      5-min Rain = 0
KPG1 141708Z 17002KT 17/03 A3027 RMK A01 T01700028  RH  039%=      5-min Rain = 0
KPG1 141709Z 17002KT 17/03 A3027 RMK A01 T01710027  RH  038%=      5-min Rain = 0
KPG1 141710Z 17002KT 17/03 A3027 RMK A01 T01720027  RH  038%=      5-min Rain = 0
KPG1 141711Z 19001KT 18/03 A3027 RMK A01 T01750029  RH  038%=      5-min Rain = 0
KPG1 141712Z 15001KT 18/03 A3027 RMK A01 T01780030  RH  037%=      5-min Rain = 0
KPG1 141713Z 17001KT 18/03 A3027 RMK A01 T01810030  RH  037%=      5-min Rain = 0
KPG1 141714Z 15003KT 18/03 A3027 RMK A01 T01840029  RH  036%=      5-min Rain = 0
KPG1 141715Z 16004KT 18/03 A3027 RMK A01 T01840027  RH  035%=      5-min Rain = 0
KPG1 141716Z 17004KT 18/03 A3026 RMK A01 T01830027  RH  035%=      5-min Rain = 0
KPG1 141717Z 15003KT 18/03 A3026 RMK A01 T01820026  RH  035%=      5-min Rain = 0
KPG1 141718Z 17003KT 18/03 A3026 RMK A01 T01820026  RH  035%=      5-min Rain = 0
KPG1 141719Z 18003KT 18/03 A3026 RMK A01 T01820026  RH  035%=      5-min Rain = 0
KPG1 141720Z 18003KT 18/02 A3026 RMK A01 T01820024  RH  035%=      5-min Rain = 0
KPG1 141721Z 19003KT 18/03 A3026 RMK A01 T01810025  RH  035%=      5-min Rain = 0
KPG1 141722Z 17004KT 18/03 A3026 RMK A01 T01820025  RH  035%=      5-min Rain = 0
KPG1 141723Z 17002KT 18/02 A3026 RMK A01 T01820023  RH  035%=      5-min Rain = 0
KPG1 141724Z 16003KT 18/03 A3026 RMK A01 T01820026  RH  035%=      5-min Rain = 0
KPG1 141725Z 19004KT 18/03 A3027 RMK A01 T01840027  RH  035%=      5-min Rain = 0
KPG1 141726Z 21003KT 19/03 A3027 RMK A01 T01860025  RH  034%=      5-min Rain = 0
KPG1 141727Z 20003KT 19/03 A3026 RMK A01 T01860025  RH  034%=      5-min Rain = 0
KPG1 141728Z 21001KT 19/02 A3026 RMK A01 T01850024  RH  034%=      5-min Rain = 0
KPG1 141729Z 20002KT 18/03 A3026 RMK A01 T01840026  RH  035%=      5-min Rain = 0
KPG1 141730Z 19004KT 19/03 A3026 RMK A01 T01860028  RH  035%=      5-min Rain = 0
KPG1 141731Z 19002KT 19/03 A3026 RMK A01 T01870025  RH  034%=      5-min Rain = 0
KPG1 141732Z 16003KT 19/02 A3026 RMK A01 T01870024  RH  034%=      5-min Rain = 0
KPG1 141733Z 17004KT 19/03 A3026 RMK A01 T01880025  RH  034%=      5-min Rain = 0
KPG1 141734Z 18003KT 19/03 A3026 RMK A01 T01900025  RH  033%=      5-min Rain = 0
KPG1 141735Z 16004KT 19/02 A3026 RMK A01 T01910024  RH  033%=      5-min Rain = 0
KPG1 141736Z 17004KT 19/02 A3026 RMK A01 T01910023  RH  033%=      5-min Rain = 0
KPG1 141737Z 20003KT 19/03 A3026 RMK A01 T01920025  RH  033%=      5-min Rain = 0
KPG1 141738Z 17003KT 19/03 A3026 RMK A01 T01910026  RH  033%=      5-min Rain = 0
KPG1 141739Z 13003KT 19/03 A3026 RMK A01 T01910026  RH  033%=      5-min Rain = 0
KPG1 141740Z 14005KT 19/03 A3026 RMK A01 T01920025  RH  033%=      5-min Rain = 0
KPG1 141741Z 14004KT 19/02 A3026 RMK A01 T01920022  RH  032%=      5-min Rain = 0
KPG1 141742Z 14004KT 19/02 A3025 RMK A01 T01920024  RH  033%=      5-min Rain = 0
KPG1 141743Z 14004KT 19/03 A3025 RMK A01 T01920026  RH  033%=      5-min Rain = 0
KPG1 141744Z 16004KT 19/03 A3025 RMK A01 T01920025  RH  033%=      5-min Rain = 0
KPG1 141745Z 16003KT 19/02 A3025 RMK A01 T01920024  RH  032%=      5-min Rain = 0
KPG1 141746Z 16003KT 19/02 A3025 RMK A01 T01930024  RH  032%=      5-min Rain = 0
KPG1 141747Z 14005KT 20/02 A3025 RMK A01 T01950023  RH  032%=      5-min Rain = 0
KPG1 141748Z 15003KT 20/02 A3025 RMK A01 T01960021  RH  031%=      5-min Rain = 0
KPG1 141749Z 16004KT 20/02 A3025 RMK A01 T01970022  RH  031%=      5-min Rain = 0
KPG1 141750Z 17002KT 20/02 A3025 RMK A01 T01960022  RH  031%=      5-min Rain = 0
KPG1 141751Z 16004KT 20/02 A3025 RMK A01 T01970021  RH  031%=      5-min Rain = 0
KPG1 141752Z 15003KT 20/02 A3025 RMK A01 T01970020  RH  031%=      5-min Rain = 0
KPG1 141753Z 17004KT 20/02 A3025 RMK A01 T01970020  RH  031%=      5-min Rain = 0
KPG1 141754Z 19004KT 20/02 A3025 RMK A01 T01980022  RH  031%=      5-min Rain = 0
KPG1 141755Z 19005KT 20/02 A3025 RMK A01 T01970022  RH  031%=      5-min Rain = 0
KPG1 141756Z 18004KT 20/02 A3025 RMK A01 T01950022  RH  032%=      5-min Rain = 0
KPG1 141757Z 17003KT 20/02 A3025 RMK A01 T01950022  RH  032%=      5-min Rain = 0
KPG1 141758Z 17005KT 20/02 A3025 RMK A01 T01970024  RH  032%=      5-min Rain = 0
KPG1 141759Z 17005KT 20/02 A3025 RMK A01 T01990022  RH  031%=      5-min Rain = 0
KPG1 141800Z 16005KT 20/02 A3025 RMK A01 T02000023  RH  031%=      5-min Rain = 0
KPG1 141801Z 17003KT 20/02 A3025 RMK A01 T02000023  RH  031%=      5-min Rain = 0
KPG1 141802Z 17003KT 20/02 A3024 RMK A01 T01990023  RH  031%=      5-min Rain = 0
KPG1 141803Z 16005KT 20/02 A3024 RMK A01 T02000024  RH  031%=      5-min Rain = 0
KPG1 141804Z 16006KT 20/02 A3024 RMK A01 T02000023  RH  031%=      5-min Rain = 0
KPG1 141805Z 16007KT 20/02 A3024 RMK A01 T02010024  RH  031%=      5-min Rain = 0
KPG1 141806Z 16005KT 20/02 A3024 RMK A01 T02020024  RH  031%=      5-min Rain = 0
KPG1 141807Z 15006KT 20/03 A3024 RMK A01 T02010025  RH  031%=      5-min Rain = 0
KPG1 141808Z 16005KT 20/02 A3024 RMK A01 T02010024  RH  031%=      5-min Rain = 0
KPG1 141809Z 16004KT 20/02 A3024 RMK A01 T02010024  RH  031%=      5-min Rain = 0
KPG1 141810Z 16005KT 20/03 A3024 RMK A01 T02010025  RH  031%=      5-min Rain = 0
KPG1 141811Z 16005KT 20/03 A3024 RMK A01 T02000025  RH  031%=      5-min Rain = 0
KPG1 141812Z 17004KT 20/03 A3024 RMK A01 T02000025  RH  031%=      5-min Rain = 0
KPG1 141813Z 15004KT 20/03 A3024 RMK A01 T02010026  RH  031%=      5-min Rain = 0
KPG1 141814Z 15004KT 20/03 A3024 RMK A01 T02030028  RH  031%=      5-min Rain = 0
KPG1 141815Z 14004KT 20/03 A3024 RMK A01 T02040027  RH  031%=      5-min Rain = 0
KPG1 141816Z 15003KT 21/03 A3024 RMK A01 T02050026  RH  030%=      5-min Rain = 0
KPG1 141817Z 14003KT 20/03 A3024 RMK A01 T02040026  RH  031%=      5-min Rain = 0
KPG1 141818Z 17004KT 20/03 A3024 RMK A01 T02040026  RH  031%=      5-min Rain = 0
KPG1 141819Z 18004KT 20/03 A3024 RMK A01 T02040026  RH  031%=      5-min Rain = 0
KPG1 141820Z 16005KT 20/03 A3024 RMK A01 T02040026  RH  031%=      5-min Rain = 0
KPG1 141821Z 16005KT 20/03 A3024 RMK A01 T02040026  RH  031%=      5-min Rain = 0
KPG1 141822Z 17004KT 20/03 A3023 RMK A01 T02040026  RH  031%=      5-min Rain = 0
KPG1 141823Z 20002KT 20/03 A3023 RMK A01 T02040025  RH  031%=      5-min Rain = 0
KPG1 141824Z 19002KT 20/03 A3023 RMK A01 T02030025  RH  031%=      5-min Rain = 0
KPG1 141825Z 15005KT 20/03 A3023 RMK A01 T02030027  RH  031%=      5-min Rain = 0
KPG1 141826Z 15005KT 20/03 A3023 RMK A01 T02040028  RH  031%=      5-min Rain = 0
KPG1 141827Z 15004KT 20/03 A3023 RMK A01 T02040028  RH  031%=      5-min Rain = 0
KPG1 141828Z 15004KT 21/03 A3023 RMK A01 T02050027  RH  031%=      5-min Rain = 0
KPG1 141829Z 15003KT 21/03 A3023 RMK A01 T02060027  RH  031%=      5-min Rain = 0
KPG1 141830Z 17004KT 21/03 A3023 RMK A01 T02050027  RH  031%=      5-min Rain = 0
KPG1 141831Z 15005KT 21/03 A3023 RMK A01 T02070029  RH  031%=      5-min Rain = 0
KPG1 141832Z 13005KT 21/03 A3022 RMK A01 T02090029  RH  031%=      5-min Rain = 0
KPG1 141833Z 15003KT 21/03 A3022 RMK A01 T02090029  RH  030%=      5-min Rain = 0
KPG1 141834Z 15006KT 21/03 A3022 RMK A01 T02100029  RH  030%=      5-min Rain = 0
KPG1 141835Z 17005KT 21/03 A3022 RMK A01 T02100028  RH  030%=      5-min Rain = 0
KPG1 141836Z 17005KT 21/03 A3022 RMK A01 T02100028  RH  030%=      5-min Rain = 0
KPG1 141837Z 19004KT 21/03 A3022 RMK A01 T02100028  RH  030%=      5-min Rain = 0
KPG1 141838Z 17003KT 21/03 A3022 RMK A01 T02120030  RH  030%=      5-min Rain = 0
KPG1 141839Z 15004KT 21/03 A3022 RMK A01 T02140029  RH  030%=      5-min Rain = 0
KPG1 141840Z 15004KT 22/03 A3022 RMK A01 T02150030  RH  030%=      5-min Rain = 0
KPG1 141841Z 15004KT 22/03 A3022 RMK A01 T02180032  RH  029%=      5-min Rain = 0
KPG1 141842Z 17005KT 22/03 A3022 RMK A01 T02200031  RH  029%=      5-min Rain = 0
KPG1 141843Z 16006KT 22/03 A3021 RMK A01 T02210031  RH  029%=      5-min Rain = 0
KPG1 141844Z 17005KT 22/03 A3021 RMK A01 T02210031  RH  029%=      5-min Rain = 0
KPG1 141845Z 17004KT 22/03 A3021 RMK A01 T02190031  RH  029%=      5-min Rain = 0
KPG1 141846Z 17004KT 22/03 A3021 RMK A01 T02170030  RH  029%=      5-min Rain = 0
KPG1 141847Z 17003KT 22/03 A3021 RMK A01 T02170031  RH  029%=      5-min Rain = 0
KPG1 141848Z 15005KT 22/03 A3021 RMK A01 T02170031  RH  029%=      5-min Rain = 0
KPG1 141849Z 15005KT 22/03 A3021 RMK A01 T02190032  RH  029%=      5-min Rain = 0
KPG1 141850Z 16003KT 22/03 A3021 RMK A01 T02200032  RH  029%=      5-min Rain = 0
KPG1 141851Z 13004KT 22/03 A3021 RMK A01 T02210033  RH  029%=      5-min Rain = 0
KPG1 141852Z 15005KT 22/03 A3021 RMK A01 T02220032  RH  029%=      5-min Rain = 0
KPG1 141853Z 17005KT 22/03 A3021 RMK A01 T02230033  RH  029%=      5-min Rain = 0
KPG1 141854Z 14005KT 22/03 A3021 RMK A01 T02240033  RH  029%=      5-min Rain = 0
KPG1 141855Z 17005KT 22/03 A3021 RMK A01 T02240033  RH  028%=      5-min Rain = 0
KPG1 141856Z 17004KT 23/03 A3021 RMK A01 T02250032  RH  028%=      5-min Rain = 0
KPG1 141857Z 16003KT 22/03 A302 RMK A01 T02240032  RH  028%=      5-min Rain = 0
KPG1 141858Z 15002KT 22/03 A302 RMK A01 T02230032  RH  029%=      5-min Rain = 0
KPG1 141859Z 14005KT 22/03 A302 RMK A01 T02230033  RH  029%=      5-min Rain = 0
KPG1 141900Z 17006KT 23/03 A302 RMK A01 T02260034  RH  028%=      5-min Rain = 0
KPG1 141901Z 16004KT 23/04 A302 RMK A01 T02290035  RH  028%=      5-min Rain = 0
KPG1 141902Z 18004KT 23/04 A302 RMK A01 T02340036  RH  028%=      5-min Rain = 0
KPG1 141903Z 19004KT 23/03 A302 RMK A01 T02330034  RH  027%=      5-min Rain = 0
KPG1 141904Z 19004KT 23/03 A302 RMK A01 T02280033  RH  028%=      5-min Rain = 0
KPG1 141905Z 22003KT 23/03 A302 RMK A01 T02260033  RH  028%=      5-min Rain = 0
KPG1 141906Z 21002KT 23/03 A302 RMK A01 T02260033  RH  028%=      5-min Rain = 0
KPG1 141907Z 18002KT 23/03 A302 RMK A01 T02250033  RH  028%=      5-min Rain = 0
KPG1 141908Z 18002KT 23/03 A302 RMK A01 T02260033  RH  028%=      5-min Rain = 0
KPG1 141909Z 17004KT 23/03 A302 RMK A01 T02280034  RH  028%=      5-min Rain = 0
KPG1 141910Z 17006KT 23/03 A302 RMK A01 T02320034  RH  028%=      5-min Rain = 0
KPG1 141911Z 16005KT 24/03 A302 RMK A01 T02360033  RH  027%=      5-min Rain = 0
KPG1 141912Z 15006KT 24/03 A302 RMK A01 T02380033  RH  026%=      5-min Rain = 0
KPG1 141913Z 15005KT 24/03 A302 RMK A01 T02370032  RH  026%=      5-min Rain = 0
KPG1 141914Z 16004KT 24/03 A302 RMK A01 T02350032  RH  027%=      5-min Rain = 0
KPG1 141915Z 15005KT 24/03 A302 RMK A01 T02350032  RH  027%=      5-min Rain = 0
KPG1 141916Z 14004KT 24/03 A3019 RMK A01 T02380033  RH  026%=      5-min Rain = 0
KPG1 141917Z 11002KT 24/03 A3019 RMK A01 T02370031  RH  026%=      5-min Rain = 0
KPG1 141918Z 17003KT 24/03 A3019 RMK A01 T02360032  RH  026%=      5-min Rain = 0
KPG1 141919Z 15004KT 24/03 A3019 RMK A01 T02360032  RH  026%=      5-min Rain = 0
KPG1 141920Z 15004KT 24/03 A3019 RMK A01 T02390033  RH  026%=      5-min Rain = 0
KPG1 141921Z 17003KT 24/03 A3019 RMK A01 T02380032  RH  026%=      5-min Rain = 0
KPG1 141922Z 19001KT 24/03 A3019 RMK A01 T02400032  RH  026%=      5-min Rain = 0
KPG1 141923Z 18003KT 24/03 A3019 RMK A01 T02400031  RH  026%=      5-min Rain = 0
KPG1 141924Z 17001KT 24/03 A3018 RMK A01 T02400032  RH  026%=      5-min Rain = 0
KPG1 141925Z 16001KT 24/03 A3018 RMK A01 T02410033  RH  026%=      5-min Rain = 0
KPG1 141926Z 17003KT 24/03 A3018 RMK A01 T02420034  RH  026%=      5-min Rain = 0
KPG1 141927Z 18002KT 24/03 A3018 RMK A01 T02440034  RH  026%=      5-min Rain = 0
KPG1 141928Z 21001KT 24/03 A3018 RMK A01 T02420034  RH  026%=      5-min Rain = 0
KPG1 141929Z 24001KT 24/03 A3018 RMK A01 T02420034  RH  026%=      5-min Rain = 0
KPG1 141930Z 29002KT 24/04 A3018 RMK A01 T02410035  RH  026%=      5-min Rain = 0
KPG1 141931Z 27003KT 24/03 A3017 RMK A01 T02400033  RH  026%=      5-min Rain = 0
KPG1 141932Z 19002KT 24/03 A3017 RMK A01 T02390034  RH  026%=      5-min Rain = 0
KPG1 141933Z 15003KT 24/04 A3017 RMK A01 T02420036  RH  026%=      5-min Rain = 0
KPG1 141934Z 13002KT 25/04 A3017 RMK A01 T02450035  RH  026%=      5-min Rain = 0
KPG1 141935Z 13001KT 25/04 A3017 RMK A01 T02450035  RH  025%=      5-min Rain = 0
KPG1 141936Z 18003KT 25/04 A3017 RMK A01 T02470036  RH  025%=      5-min Rain = 0
KPG1 141937Z 17005KT 25/04 A3017 RMK A01 T02490037  RH  025%=      5-min Rain = 0
KPG1 141938Z 16003KT 25/04 A3017 RMK A01 T02490037  RH  025%=      5-min Rain = 0
KPG1 141939Z 14003KT 25/04 A3017 RMK A01 T02480037  RH  025%=      5-min Rain = 0
KPG1 141940Z 25002KT 25/04 A3017 RMK A01 T02490037  RH  025%=      5-min Rain = 0
KPG1 141941Z 24003KT 25/04 A3016 RMK A01 T02510038  RH  025%=      5-min Rain = 0
KPG1 141942Z 22002KT 25/04 A3016 RMK A01 T02530038  RH  025%=      5-min Rain = 0
KPG1 141943Z 19004KT 25/04 A3016 RMK A01 T02530038  RH  025%=      5-min Rain = 0
KPG1 141944Z 16004KT 26/04 A3016 RMK A01 T02550039  RH  025%=      5-min Rain = 0
KPG1 141945Z 17004KT 26/04 A3016 RMK A01 T02550038  RH  025%=      5-min Rain = 0
KPG1 141946Z 21005KT 26/04 A3016 RMK A01 T02550038  RH  025%=      5-min Rain = 0
KPG1 141947Z 20006KT 26/04 A3016 RMK A01 T02560040  RH  025%=      5-min Rain = 0
KPG1 141948Z 20006KT 26/04 A3016 RMK A01 T02570040  RH  025%=      5-min Rain = 0
KPG1 141949Z 19006KT 26/04 A3016 RMK A01 T02570039  RH  024%=      5-min Rain = 0
KPG1 141950Z 18003KT 26/04 A3016 RMK A01 T02550039  RH  025%=      5-min Rain = 0
KPG1 141951Z 20001KT 25/04 A3015 RMK A01 T02540039  RH  025%=      5-min Rain = 0
KPG1 141952Z 24001KT 26/04 A3015 RMK A01 T02570040  RH  025%=      5-min Rain = 0
KPG1 141953Z 16003KT 26/04 A3015 RMK A01 T02590040  RH  024%=      5-min Rain = 0
KPG1 141954Z 17003KT 26/04 A3015 RMK A01 T02610041  RH  024%=      5-min Rain = 0
KPG1 141955Z 18001KT 26/04 A3015 RMK A01 T02620041  RH  024%=      5-min Rain = 0
KPG1 141956Z 11002KT 26/04 A3015 RMK A01 T02630042  RH  024%=      5-min Rain = 0
KPG1 141957Z 12004KT 27/04 A3015 RMK A01 T02650042  RH  024%=      5-min Rain = 0
KPG1 141958Z 15003KT 27/04 A3015 RMK A01 T02650041  RH  024%=      5-min Rain = 0
KPG1 141959Z 17004KT 26/04 A3015 RMK A01 T02640040  RH  024%=      5-min Rain = 0
KPG1 142000Z 19005KT 26/04 A3015 RMK A01 T02630041  RH  024%=      5-min Rain = 0
KPG1 142001Z 21004KT 26/04 A3015 RMK A01 T02630042  RH  024%=      5-min Rain = 0
KPG1 142002Z 17004KT 27/04 A3015 RMK A01 T02650044  RH  024%=      5-min Rain = 0
KPG1 142003Z 14004KT 27/04 A3015 RMK A01 T02700043  RH  023%=      5-min Rain = 0
KPG1 142004Z 15004KT 27/04 A3014 RMK A01 T02700043  RH  023%=      5-min Rain = 0
KPG1 142005Z 12006KT 27/04 A3014 RMK A01 T02690043  RH  023%=      5-min Rain = 0
KPG1 142006Z 13003KT 27/04 A3014 RMK A01 T02680043  RH  023%=      5-min Rain = 0
KPG1 142007Z 10002KT 27/04 A3014 RMK A01 T02680043  RH  024%=      5-min Rain = 0
KPG1 142008Z 16005KT 27/05 A3014 RMK A01 T02710045  RH  023%=      5-min Rain = 0
KPG1 142009Z 18005KT 27/05 A3014 RMK A01 T02740045  RH  023%=      5-min Rain = 0
KPG1 142010Z 13008KT 28/05 A3014 RMK A01 T02770046  RH  023%=      5-min Rain = 0
KPG1 142011Z 16008KT 28/05 A3014 RMK A01 T02790047  RH  023%=      5-min Rain = 0
KPG1 142012Z 17007G12KT 28/05 A3014 RMK A01 T02750045  RH  023%=      5-min Rain = 0
KPG1 142013Z 15006G13KT 27/05 A3014 RMK A01 T02730046  RH  023%=      5-min Rain = 0
KPG1 142014Z 15008KT 27/05 A3014 RMK A01 T02730048  RH  024%=      5-min Rain = 0
KPG1 142015Z 17008KT 27/05 A3013 RMK A01 T02740047  RH  023%=      5-min Rain = 0
KPG1 142016Z 19008KT 28/05 A3013 RMK A01 T02750048  RH  023%=      5-min Rain = 0
KPG1 142017Z 16006KT 28/05 A3013 RMK A01 T02770049  RH  023%=      5-min Rain = 0
KPG1 142018Z 16006KT 28/05 A3013 RMK A01 T02790050  RH  023%=      5-min Rain = 0
KPG1 142019Z 18009KT 28/05 A3013 RMK A01 T02830051  RH  023%=      5-min Rain = 0
KPG1 142020Z 15009KT 29/05 A3013 RMK A01 T02850052  RH  023%=      5-min Rain = 0
KPG1 142021Z 16005KT 28/05 A3013 RMK A01 T02840053  RH  023%=      5-min Rain = 0
KPG1 142022Z 15008KT 28/05 A3013 RMK A01 T02820052  RH  023%=      5-min Rain = 0
KPG1 142023Z 14008KT 28/05 A3013 RMK A01 T02820053  RH  023%=      5-min Rain = 0
KPG1 142024Z 16008KT 28/05 A3013 RMK A01 T02810054  RH  024%=      5-min Rain = 0
KPG1 142025Z 17008KT 28/05 A3013 RMK A01 T02830054  RH  023%=      5-min Rain = 0
KPG1 142026Z 14007KT 29/05 A3012 RMK A01 T02860053  RH  023%=      5-min Rain = 0
KPG1 142027Z 14006KT 29/05 A3012 RMK A01 T02860054  RH  023%=      5-min Rain = 0
KPG1 142028Z 14011KT 29/05 A3012 RMK A01 T02860054  RH  023%=      5-min Rain = 0
KPG1 142029Z 16010KT 29/05 A3012 RMK A01 T02870053  RH  023%=      5-min Rain = 0
KPG1 142030Z 17007KT 29/05 A3012 RMK A01 T02870053  RH  023%=      5-min Rain = 0
KPG1 142031Z 18005KT 29/05 A3012 RMK A01 T02850054  RH  023%=      5-min Rain = 0
KPG1 142032Z 18010KT 29/06 A3012 RMK A01 T02860055  RH  023%=      5-min Rain = 0
KPG1 142033Z 16009KT 29/06 A3012 RMK A01 T02880056  RH  023%=      5-min Rain = 0
KPG1 142034Z 15009KT 29/06 A3012 RMK A01 T02910056  RH  023%=      5-min Rain = 0
KPG1 142035Z 16008KT 29/06 A3012 RMK A01 T02890055  RH  023%=      5-min Rain = 0
KPG1 142036Z 16008KT 29/06 A3012 RMK A01 T02890057  RH  023%=      5-min Rain = 0
KPG1 142037Z 15006KT 29/06 A3011 RMK A01 T02900057  RH  023%=      5-min Rain = 0
KPG1 142038Z 14007KT 29/06 A3011 RMK A01 T02900057  RH  023%=      5-min Rain = 0
KPG1 142039Z 17008KT 29/06 A3011 RMK A01 T02900056  RH  023%=      5-min Rain = 0
KPG1 142040Z 17012KT 29/06 A3011 RMK A01 T02880057  RH  023%=      5-min Rain = 0
KPG1 142041Z 18009KT 29/06 A3011 RMK A01 T02850057  RH  024%=      5-min Rain = 0
KPG1 142042Z 16006KT 28/06 A3011 RMK A01 T02840057  RH  024%=      5-min Rain = 0
KPG1 142043Z 15006KT 28/06 A3011 RMK A01 T02840058  RH  024%=      5-min Rain = 0
KPG1 142044Z 13005KT 28/06 A3011 RMK A01 T02830058  RH  024%=      5-min Rain = 0
KPG1 142045Z 12006KT 28/06 A3011 RMK A01 T02830057  RH  024%=      5-min Rain = 0
KPG1 142046Z 14006KT 28/06 A3011 RMK A01 T02830057  RH  024%=      5-min Rain = 0
KPG1 142047Z 14009KT 28/06 A3011 RMK A01 T02840057  RH  024%=      5-min Rain = 0
KPG1 142048Z 15008KT 28/06 A3011 RMK A01 T02840056  RH  024%=      5-min Rain = 0
KPG1 142049Z 16009KT 28/06 A3011 RMK A01 T02830056  RH  024%=      5-min Rain = 0
KPG1 142050Z 15007KT 28/06 A3011 RMK A01 T02830055  RH  024%=      5-min Rain = 0
KPG1 142051Z 13005KT 28/06 A3011 RMK A01 T02810055  RH  024%=      5-min Rain = 0
KPG1 142052Z 07007KT 28/05 A3011 RMK A01 T02810050  RH  023%=      5-min Rain = 0
KPG1 142053Z 08007KT 28/04 A3011 RMK A01 T02760044  RH  023%=      5-min Rain = 0
KPG1 142054Z 08007KT 27/04 A3011 RMK A01 T02730044  RH  023%=      5-min Rain = 0
KPG1 142055Z 08006KT 27/04 A3011 RMK A01 T02700043  RH  023%=      5-min Rain = 0
KPG1 142056Z 07006KT 27/05 A3011 RMK A01 T02700045  RH  024%=      5-min Rain = 0
KPG1 142057Z 08008KT 27/05 A3011 RMK A01 T02710048  RH  024%=      5-min Rain = 0
KPG1 142058Z 13007KT 27/05 A3011 RMK A01 T02730054  RH  025%=      5-min Rain = 0
KPG1 142059Z 13006KT 28/06 A3011 RMK A01 T02760058  RH  025%=      5-min Rain = 0
KPG1 142100Z 09007KT 28/06 A3011 RMK A01 T02780055  RH  024%=      5-min Rain = 0
KPG1 142101Z 08007KT 28/05 A3011 RMK A01 T02750045  RH  023%=      5-min Rain = 0
KPG1 142102Z 09006G11KT 27/04 A3011 RMK A01 T02710044  RH  023%=      5-min Rain = 0
KPG1 142103Z 08008KT 27/05 A301 RMK A01 T02690045  RH  024%=      5-min Rain = 0
KPG1 142104Z 07006KT 27/05 A301 RMK A01 T02690048  RH  024%=      5-min Rain = 0
KPG1 142105Z 09007KT 27/05 A301 RMK A01 T02710049  RH  024%=      5-min Rain = 0
KPG1 142106Z 14007KT 27/06 A301 RMK A01 T02730057  RH  025%=      5-min Rain = 0
KPG1 142107Z 12006KT 28/06 A301 RMK A01 T02770062  RH  026%=      5-min Rain = 0
KPG1 142108Z 11007KT 28/06 A301 RMK A01 T02780062  RH  025%=      5-min Rain = 0
KPG1 142109Z 10004KT 28/06 A301 RMK A01 T02800061  RH  025%=      5-min Rain = 0
KPG1 142110Z 11004KT 28/06 A301 RMK A01 T02800062  RH  025%=      5-min Rain = 0
KPG1 142111Z 10005KT 28/06 A301 RMK A01 T02830063  RH  025%=      5-min Rain = 0
KPG1 142112Z 08007KT 28/05 A301 RMK A01 T02840053  RH  023%=      5-min Rain = 0
KPG1 142113Z 08008KT 28/05 A3009 RMK A01 T02820053  RH  023%=      5-min Rain = 0
KPG1 142114Z 13006KT 29/06 A3009 RMK A01 T02850063  RH  024%=      5-min Rain = 0
KPG1 142115Z 12005KT 29/07 A3009 RMK A01 T02880066  RH  025%=      5-min Rain = 0
KPG1 142116Z 11009KT 29/07 A3009 RMK A01 T02910066  RH  024%=      5-min Rain = 0
KPG1 142117Z 13009KT 29/07 A3009 RMK A01 T02910067  RH  024%=      5-min Rain = 0
KPG1 142118Z 13009KT 29/07 A3009 RMK A01 T02880066  RH  025%=      5-min Rain = 0
KPG1 142119Z 13010KT 29/07 A3009 RMK A01 T02850066  RH  025%=      5-min Rain = 0
KPG1 142120Z 14006KT 28/07 A3009 RMK A01 T02840066  RH  025%=      5-min Rain = 0
KPG1 142121Z 12007KT 28/07 A3009 RMK A01 T02840066  RH  025%=      5-min Rain = 0
KPG1 142122Z 11006KT 28/07 A3009 RMK A01 T02840066  RH  025%=      5-min Rain = 0
KPG1 142123Z 11006KT 28/07 A3009 RMK A01 T02840066  RH  025%=      5-min Rain = 0
KPG1 142124Z 11008KT 28/07 A3009 RMK A01 T02840066  RH  025%=      5-min Rain = 0
KPG1 142125Z 11007KT 28/07 A3009 RMK A01 T02820065  RH  025%=      5-min Rain = 0
KPG1 142126Z 11006KT 28/07 A3009 RMK A01 T02810066  RH  026%=      5-min Rain = 0
KPG1 142127Z 11007KT 28/07 A3009 RMK A01 T02810066  RH  026%=      5-min Rain = 0
KPG1 142128Z 13008KT 28/07 A3009 RMK A01 T02810065  RH  025%=      5-min Rain = 0
KPG1 142129Z 15007KT 28/07 A3008 RMK A01 T02810066  RH  026%=      5-min Rain = 0
KPG1 142130Z 13007KT 28/07 A3008 RMK A01 T02810065  RH  025%=      5-min Rain = 0
KPG1 142131Z 14008KT 28/07 A3008 RMK A01 T02820066  RH  025%=      5-min Rain = 0
KPG1 142132Z 14007KT 29/07 A3008 RMK A01 T02850069  RH  026%=      5-min Rain = 0
KPG1 142133Z 14009G14KT 29/07 A3008 RMK A01 T02890070  RH  025%=      5-min Rain = 0
KPG1 142134Z 15010KT 29/07 A3008 RMK A01 T02920069  RH  025%=      5-min Rain = 0
KPG1 142135Z 16007KT 29/07 A3008 RMK A01 T02940069  RH  024%=      5-min Rain = 0
KPG1 142136Z 08005KT 30/07 A3008 RMK A01 T02950065  RH  023%=      5-min Rain = 0
KPG1 142137Z 07007KT 29/05 A3008 RMK A01 T02910050  RH  022%=      5-min Rain = 0
KPG1 142138Z 08007KT 29/05 A3008 RMK A01 T02850049  RH  022%=      5-min Rain = 0
KPG1 142139Z 09006KT 28/05 A3008 RMK A01 T02840051  RH  023%=      5-min Rain = 0
KPG1 142140Z 08005KT 29/05 A3008 RMK A01 T02860050  RH  022%=      5-min Rain = 0
KPG1 142141Z 08007KT 29/05 A3008 RMK A01 T02870050  RH  022%=      5-min Rain = 0
KPG1 142142Z 10005KT 29/05 A3008 RMK A01 T02870050  RH  022%=      5-min Rain = 0
KPG1 142143Z 10005KT 29/05 A3008 RMK A01 T02870052  RH  022%=      5-min Rain = 0
KPG1 142144Z 02003KT 29/05 A3008 RMK A01 T02880052  RH  022%=      5-min Rain = 0
KPG1 142145Z 16006KT 29/06 A3007 RMK A01 T02880063  RH  024%=      5-min Rain = 0
KPG1 142146Z 12007KT 29/06 A3007 RMK A01 T02920064  RH  024%=      5-min Rain = 0
KPG1 142147Z 09005KT 30/06 A3007 RMK A01 T02950059  RH  022%=      5-min Rain = 0
KPG1 142148Z 08004KT 29/05 A3007 RMK A01 T02940052  RH  022%=      5-min Rain = 0
KPG1 142149Z 17005KT 29/06 A3007 RMK A01 T02910056  RH  023%=      5-min Rain = 0
KPG1 142150Z 17005KT 29/07 A3007 RMK A01 T02940066  RH  024%=      5-min Rain = 0
KPG1 142151Z 17007KT 30/07 A3007 RMK A01 T02980068  RH  023%=      5-min Rain = 0
KPG1 142152Z 16008KT 30/07 A3007 RMK A01 T03030069  RH  023%=      5-min Rain = 0
KPG1 142153Z 16008KT 30/07 A3007 RMK A01 T03040068  RH  023%=      5-min Rain = 0
KPG1 142154Z 13007KT 30/07 A3007 RMK A01 T03030068  RH  023%=      5-min Rain = 0
KPG1 142155Z 13006KT 30/06 A3007 RMK A01 T03010064  RH  022%=      5-min Rain = 0
KPG1 142156Z 14005KT 30/07 A3007 RMK A01 T02990065  RH  023%=      5-min Rain = 0
KPG1 142157Z 18008KT 30/07 A3007 RMK A01 T02980065  RH  023%=      5-min Rain = 0
KPG1 142158Z 17010KT 30/07 A3006 RMK A01 T02980067  RH  023%=      5-min Rain = 0
KPG1 142159Z 16010KT 30/07 A3006 RMK A01 T02990069  RH  023%=      5-min Rain = 0
KPG1 142200Z 17007G12KT 30/07 A3006 RMK A01 T03010069  RH  023%=      5-min Rain = 0
KPG1 142201Z 18006KT 30/07 A3006 RMK A01 T03030070  RH  023%=      5-min Rain = 0
KPG1 142202Z 07006KT 31/06 A3006 RMK A01 T03050059  RH  021%=      5-min Rain = 0
KPG1 142203Z 12006KT 30/06 A3006 RMK A01 T03020057  RH  021%=      5-min Rain = 0
KPG1 142204Z 16008KT 30/06 A3006 RMK A01 T02980061  RH  022%=      5-min Rain = 0
KPG1 142205Z 12010KT 30/06 A3006 RMK A01 T02980063  RH  023%=      5-min Rain = 0
KPG1 142206Z 11009KT 30/06 A3006 RMK A01 T02970062  RH  023%=      5-min Rain = 0
KPG1 142207Z 12007KT 30/06 A3006 RMK A01 T02950062  RH  023%=      5-min Rain = 0
KPG1 142208Z 12010KT 29/06 A3006 RMK A01 T02940063  RH  023%=      5-min Rain = 0
KPG1 142209Z 13009KT 29/06 A3006 RMK A01 T02940064  RH  023%=      5-min Rain = 0
KPG1 142210Z 12008KT 29/06 A3006 RMK A01 T02940064  RH  023%=      5-min Rain = 0
KPG1 142211Z 11007KT 30/06 A3006 RMK A01 T02950064  RH  023%=      5-min Rain = 0
KPG1 142212Z 11005KT 30/07 A3006 RMK A01 T02950065  RH  023%=      5-min Rain = 0
KPG1 142213Z 14004KT 30/07 A3006 RMK A01 T02970065  RH  023%=      5-min Rain = 0
KPG1 142214Z 12005KT 30/06 A3006 RMK A01 T02980063  RH  023%=      5-min Rain = 0
KPG1 142215Z 11006KT 30/06 A3006 RMK A01 T02970061  RH  023%=      5-min Rain = 0
KPG1 142216Z 13005KT 30/06 A3006 RMK A01 T02960062  RH  023%=      5-min Rain = 0
KPG1 142217Z 12006KT 30/06 A3006 RMK A01 T02990064  RH  023%=      5-min Rain = 0
KPG1 142218Z 13011KT 30/06 A3006 RMK A01 T03010064  RH  022%=      5-min Rain = 0
KPG1 142219Z 12008KT 30/07 A3006 RMK A01 T03000065  RH  023%=      5-min Rain = 0
KPG1 142220Z 13009KT 30/07 A3006 RMK A01 T02970065  RH  023%=      5-min Rain = 0
KPG1 142221Z 14007KT 30/07 A3005 RMK A01 T02970065  RH  023%=      5-min Rain = 0
KPG1 142222Z 12008KT 30/07 A3005 RMK A01 T02980065  RH  023%=      5-min Rain = 0
KPG1 142223Z 14005KT 30/07 A3005 RMK A01 T02980066  RH  023%=      5-min Rain = 0
KPG1 142224Z 15004KT 30/07 A3005 RMK A01 T02970066  RH  023%=      5-min Rain = 0
KPG1 142225Z 13004KT 30/07 A3005 RMK A01 T02970066  RH  023%=      5-min Rain = 0
KPG1 142226Z 13004KT 30/07 A3006 RMK A01 T03000068  RH  023%=      5-min Rain = 0
KPG1 142227Z 13007KT 30/07 A3006 RMK A01 T03000067  RH  023%=      5-min Rain = 0
KPG1 142228Z 12009KT 30/07 A3006 RMK A01 T03000067  RH  023%=      5-min Rain = 0
KPG1 142229Z 13008KT 30/07 A3006 RMK A01 T02980067  RH  023%=      5-min Rain = 0
KPG1 142230Z 10005KT 30/07 A3005 RMK A01 T02960066  RH  024%=      5-min Rain = 0
KPG1 142231Z 10006KT 29/07 A3006 RMK A01 T02940067  RH  024%=      5-min Rain = 0
KPG1 142232Z 12006KT 29/07 A3005 RMK A01 T02930066  RH  024%=      5-min Rain = 0
KPG1 142233Z 10006KT 29/07 A3005 RMK A01 T02920066  RH  024%=      5-min Rain = 0
KPG1 142234Z 11007KT 30/07 A3005 RMK A01 T02960067  RH  024%=      5-min Rain = 0
KPG1 142235Z 10005KT 30/07 A3005 RMK A01 T02970067  RH  024%=      5-min Rain = 0
KPG1 142236Z 12009KT 30/07 A3005 RMK A01 T02980068  RH  024%=      5-min Rain = 0
KPG1 142237Z 12008KT 30/07 A3005 RMK A01 T02980068  RH  024%=      5-min Rain = 0
KPG1 142238Z 11008KT 30/07 A3005 RMK A01 T02980068  RH  024%=      5-min Rain = 0
KPG1 142239Z 12006KT 30/07 A3005 RMK A01 T02980068  RH  024%=      5-min Rain = 0
KPG1 142240Z 10007KT 30/07 A3005 RMK A01 T02970068  RH  024%=      5-min Rain = 0
KPG1 142241Z 10007KT 30/07 A3005 RMK A01 T02960066  RH  023%=      5-min Rain = 0
KPG1 142242Z 08004KT 29/07 A3005 RMK A01 T02940066  RH  024%=      5-min Rain = 0
KPG1 142243Z 09003KT 29/07 A3005 RMK A01 T02930065  RH  024%=      5-min Rain = 0
KPG1 142244Z 13007KT 29/07 A3005 RMK A01 T02920066  RH  024%=      5-min Rain = 0
KPG1 142245Z 14008KT 29/07 A3005 RMK A01 T02930065  RH  024%=      5-min Rain = 0
KPG1 142246Z 13005KT 30/07 A3005 RMK A01 T02950065  RH  023%=      5-min Rain = 0
KPG1 142247Z 12006KT 30/07 A3005 RMK A01 T02970065  RH  023%=      5-min Rain = 0
KPG1 142248Z 12007KT 30/07 A3005 RMK A01 T02970067  RH  023%=      5-min Rain = 0
KPG1 142249Z 13007KT 30/07 A3005 RMK A01 T02980067  RH  023%=      5-min Rain = 0
KPG1 142250Z 10007KT 30/07 A3005 RMK A01 T02970066  RH  023%=      5-min Rain = 0
KPG1 142251Z 09009KT 30/06 A3005 RMK A01 T02950061  RH  023%=      5-min Rain = 0
KPG1 142252Z 08005KT 29/06 A3005 RMK A01 T02910059  RH  023%=      5-min Rain = 0
KPG1 142253Z 10006KT 29/06 A3005 RMK A01 T02890059  RH  023%=      5-min Rain = 0
KPG1 142254Z 10005KT 29/06 A3005 RMK A01 T02890060  RH  023%=      5-min Rain = 0
KPG1 142255Z 08007KT 29/06 A3005 RMK A01 T02900060  RH  023%=      5-min Rain = 0
KPG1 142256Z 08009KT 29/06 A3005 RMK A01 T02910061  RH  023%=      5-min Rain = 0
KPG1 142257Z 09008KT 29/06 A3005 RMK A01 T02900061  RH  024%=      5-min Rain = 0
KPG1 142258Z 07009KT 29/06 A3005 RMK A01 T02890061  RH  024%=      5-min Rain = 0
KPG1 142259Z 07011KT 29/06 A3005 RMK A01 T02870059  RH  024%=      5-min Rain = 0
KPG1 142300Z 07013KT 29/06 A3005 RMK A01 T02860059  RH  024%=      5-min Rain = 0
KPG1 142301Z 07011KT 28/06 A3005 RMK A01 T02840059  RH  024%=      5-min Rain = 0
KPG1 142302Z 07009KT 28/06 A3005 RMK A01 T02830058  RH  024%=      5-min Rain = 0
KPG1 142303Z 08008KT 28/06 A3005 RMK A01 T02820058  RH  024%=      5-min Rain = 0
KPG1 142304Z 09006KT 28/06 A3005 RMK A01 T02810059  RH  024%=      5-min Rain = 0
KPG1 142305Z 08008KT 28/06 A3005 RMK A01 T02820060  RH  024%=      5-min Rain = 0
KPG1 142306Z 09008KT 28/06 A3005 RMK A01 T02820063  RH  025%=      5-min Rain = 0
KPG1 142307Z 08008KT 28/06 A3005 RMK A01 T02830062  RH  025%=      5-min Rain = 0
KPG1 142308Z 11007KT 28/06 A3005 RMK A01 T02830061  RH  024%=      5-min Rain = 0
KPG1 142309Z 11007KT 28/07 A3005 RMK A01 T02830066  RH  025%=      5-min Rain = 0
KPG1 142310Z 08011KT 28/06 A3005 RMK A01 T02840062  RH  025%=      5-min Rain = 0
KPG1 142311Z 07009KT 28/06 A3005 RMK A01 T02820059  RH  024%=      5-min Rain = 0
KPG1 142312Z 06009KT 28/06 A3005 RMK A01 T02810058  RH  024%=      5-min Rain = 0
KPG1 142313Z 07008KT 28/06 A3005 RMK A01 T02800057  RH  024%=      5-min Rain = 0
KPG1 142314Z 07009KT 28/06 A3005 RMK A01 T02800057  RH  024%=      5-min Rain = 0
KPG1 142315Z 07009KT 28/06 A3005 RMK A01 T02790056  RH  024%=      5-min Rain = 0
KPG1 142316Z 07009KT 28/06 A3005 RMK A01 T02780057  RH  025%=      5-min Rain = 0
KPG1 142317Z 06008KT 28/06 A3005 RMK A01 T02780058  RH  025%=      5-min Rain = 0
KPG1 142318Z 07008KT 28/06 A3005 RMK A01 T02780059  RH  025%=      5-min Rain = 0
KPG1 142319Z 07006KT 28/06 A3005 RMK A01 T02790059  RH  025%=      5-min Rain = 0
KPG1 142320Z 07009KT 28/06 A3005 RMK A01 T02800059  RH  025%=      5-min Rain = 0
KPG1 142321Z 07007KT 28/06 A3005 RMK A01 T02800058  RH  024%=      5-min Rain = 0
KPG1 142322Z 07007KT 28/06 A3005 RMK A01 T02790058  RH  024%=      5-min Rain = 0
KPG1 142323Z 08009KT 28/06 A3005 RMK A01 T02800058  RH  025%=      5-min Rain = 0
KPG1 142324Z 07009KT 28/06 A3005 RMK A01 T02790058  RH  024%=      5-min Rain = 0
KPG1 142325Z 07008KT 28/06 A3005 RMK A01 T02780057  RH  025%=      5-min Rain = 0
KPG1 142326Z 07007KT 28/06 A3005 RMK A01 T02770057  RH  025%=      5-min Rain = 0
KPG1 142327Z 06009KT 28/06 A3005 RMK A01 T02770058  RH  025%=      5-min Rain = 0
KPG1 142328Z 06007KT 28/06 A3005 RMK A01 T02770058  RH  025%=      5-min Rain = 0
KPG1 142329Z 06008KT 28/06 A3005 RMK A01 T02760058  RH  025%=      5-min Rain = 0
KPG1 142330Z 06009KT 28/06 A3005 RMK A01 T02760058  RH  025%=      5-min Rain = 0
KPG1 142331Z 06008KT 28/06 A3005 RMK A01 T02760058  RH  025%=      5-min Rain = 0
KPG1 142332Z 06009KT 28/06 A3005 RMK A01 T02760058  RH  025%=      5-min Rain = 0
KPG1 142333Z 07010KT 28/06 A3005 RMK A01 T02760057  RH  025%=      5-min Rain = 0
KPG1 142334Z 07009KT 28/06 A3005 RMK A01 T02760057  RH  025%=      5-min Rain = 0
KPG1 142335Z 07009KT 28/06 A3005 RMK A01 T02750057  RH  025%=      5-min Rain = 0
KPG1 142336Z 07008KT 28/06 A3005 RMK A01 T02750057  RH  025%=      5-min Rain = 0
KPG1 142337Z 07008KT 28/06 A3005 RMK A01 T02750057  RH  025%=      5-min Rain = 0
KPG1 142338Z 06007KT 28/06 A3005 RMK A01 T02750058  RH  025%=      5-min Rain = 0
KPG1 142339Z 06010KT 28/06 A3005 RMK A01 T02770058  RH  025%=      5-min Rain = 0
KPG1 142340Z 06009KT 28/06 A3005 RMK A01 T02760058  RH  025%=      5-min Rain = 0
KPG1 142341Z 06008KT 28/06 A3005 RMK A01 T02760058  RH  025%=      5-min Rain = 0
KPG1 142342Z 06011KT 28/06 A3005 RMK A01 T02760058  RH  025%=      5-min Rain = 0
KPG1 142343Z 06014KT 28/06 A3005 RMK A01 T02750057  RH  025%=      5-min Rain = 0
KPG1 142344Z 05012KT 27/06 A3005 RMK A01 T02710056  RH  025%=      5-min Rain = 0
KPG1 142345Z 05014KT 27/06 A3005 RMK A01 T02670057  RH  026%=      5-min Rain = 0
KPG1 142346Z 05012KT 27/06 A3005 RMK A01 T02650057  RH  026%=      5-min Rain = 0
KPG1 142347Z 05013KT 26/06 A3005 RMK A01 T02640058  RH  027%=      5-min Rain = 0
KPG1 142348Z 05011KT 26/06 A3005 RMK A01 T02640058  RH  027%=      5-min Rain = 0
KPG1 142349Z 06011KT 26/06 A3005 RMK A01 T02640059  RH  027%=      5-min Rain = 0
KPG1 142350Z 05012KT 26/06 A3005 RMK A01 T02640060  RH  027%=      5-min Rain = 0
KPG1 142351Z 04013KT 26/06 A3005 RMK A01 T02630060  RH  027%=      5-min Rain = 0
KPG1 142352Z 04013KT 26/06 A3005 RMK A01 T02610061  RH  028%=      5-min Rain = 0
KPG1 142353Z 04013KT 26/06 A3005 RMK A01 T02600062  RH  028%=      5-min Rain = 0
KPG1 142354Z 05013KT 26/06 A3005 RMK A01 T02590062  RH  028%=      5-min Rain = 0
KPG1 142355Z 04013KT 26/06 A3005 RMK A01 T02580062  RH  029%=      5-min Rain = 0
KPG1 142356Z 04013KT 26/06 A3005 RMK A01 T02570063  RH  029%=      5-min Rain = 0
KPG1 142357Z 03012KT 26/06 A3005 RMK A01 T02550063  RH  029%=      5-min Rain = 0
KPG1 142358Z 04011KT 25/06 A3005 RMK A01 T02540062  RH  029%=      5-min Rain = 0
KPG1 142359Z 03013KT 25/06 A3005 RMK A01 T02540063  RH  029%=      5-min Rain = 0
KPG1 150000Z 03014KT 25/06 A3005 RMK A01 T02530063  RH  030%=      5-min Rain = 0
KPG1 150001Z 03015KT 25/06 A3005 RMK A01 T02520063  RH  030%=      5-min Rain = 0
KPG1 150002Z 04014KT 25/06 A3005 RMK A01 T02510063  RH  030%=      5-min Rain = 0
KPG1 150003Z 03013KT 25/06 A3005 RMK A01 T02500063  RH  030%=      5-min Rain = 0
KPG1 150004Z 03014KT 25/06 A3005 RMK A01 T02500064  RH  030%=      5-min Rain = 0
KPG1 150005Z 03014KT 25/06 A3005 RMK A01 T02490064  RH  031%=      5-min Rain = 0
KPG1 150006Z 03014KT 25/07 A3005 RMK A01 T02480065  RH  031%=      5-min Rain = 0
KPG1 150007Z 03015KT 25/06 A3005 RMK A01 T02460064  RH  031%=      5-min Rain = 0
KPG1 150008Z 03014KT 25/07 A3005 RMK A01 T02460065  RH  031%=      5-min Rain = 0
KPG1 150009Z 02014KT 25/07 A3005 RMK A01 T02450065  RH  031%=      5-min Rain = 0
KPG1 150010Z 02014KT 25/07 A3005 RMK A01 T02450065  RH  031%=      5-min Rain = 0
KPG1 150011Z 03015KT 24/07 A3005 RMK A01 T02440065  RH  032%=      5-min Rain = 0
KPG1 150012Z 03015KT 24/07 A3005 RMK A01 T02440065  RH  032%=      5-min Rain = 0
KPG1 150013Z 03013KT 24/07 A3005 RMK A01 T02430065  RH  032%=      5-min Rain = 0
KPG1 150014Z 03014KT 24/07 A3005 RMK A01 T02430065  RH  032%=      5-min Rain = 0
KPG1 150015Z 02016KT 24/07 A3005 RMK A01 T02420065  RH  032%=      5-min Rain = 0
KPG1 150016Z 02015KT 24/07 A3005 RMK A01 T02420065  RH  032%=      5-min Rain = 0
KPG1 150017Z 03014KT 24/07 A3005 RMK A01 T02410065  RH  032%=      5-min Rain = 0
KPG1 150018Z 02013KT 24/07 A3005 RMK A01 T02400065  RH  032%=      5-min Rain = 0
KPG1 150019Z 03014KT 24/07 A3005 RMK A01 T02390065  RH  033%=      5-min Rain = 0
KPG1 150020Z 03015KT 24/07 A3005 RMK A01 T02390065  RH  033%=      5-min Rain = 0
KPG1 150021Z 03015KT 24/07 A3005 RMK A01 T02380065  RH  033%=      5-min Rain = 0
KPG1 150022Z 03015KT 24/07 A3005 RMK A01 T02370066  RH  033%=      5-min Rain = 0
KPG1 150023Z 03014KT 24/07 A3005 RMK A01 T02360066  RH  033%=      5-min Rain = 0
KPG1 150024Z 03015KT 24/07 A3005 RMK A01 T02350066  RH  033%=      5-min Rain = 0
KPG1 150025Z 03015KT 24/07 A3005 RMK A01 T02350066  RH  034%=      5-min Rain = 0
KPG1 150026Z 03015KT 23/07 A3005 RMK A01 T02340066  RH  034%=      5-min Rain = 0
KPG1 150027Z 02014KT 23/07 A3005 RMK A01 T02340066  RH  034%=      5-min Rain = 0
KPG1 150028Z 02015KT 23/07 A3005 RMK A01 T02320066  RH  034%=      5-min Rain = 0
KPG1 150029Z 03014KT 23/07 A3006 RMK A01 T02310066  RH  034%=      5-min Rain = 0
KPG1 150030Z 03015KT 23/07 A3006 RMK A01 T02300066  RH  035%=      5-min Rain = 0
KPG1 150031Z 03014KT 23/07 A3006 RMK A01 T02290066  RH  035%=      5-min Rain = 0
KPG1 150032Z 04014KT 23/07 A3006 RMK A01 T02280066  RH  035%=      5-min Rain = 0
KPG1 150033Z 03014KT 23/07 A3006 RMK A01 T02280066  RH  035%=      5-min Rain = 0
KPG1 150034Z 03015KT 23/07 A3006 RMK A01 T02270066  RH  035%=      5-min Rain = 0
KPG1 150035Z 03017KT 23/07 A3006 RMK A01 T02270067  RH  036%=      5-min Rain = 0
KPG1 150036Z 04017KT 23/07 A3006 RMK A01 T02260067  RH  036%=      5-min Rain = 0
KPG1 150037Z 04016KT 23/07 A3006 RMK A01 T02250067  RH  036%=      5-min Rain = 0
KPG1 150038Z 04017KT 23/07 A3006 RMK A01 T02250067  RH  036%=      5-min Rain = 0
KPG1 150039Z 04017KT 22/07 A3006 RMK A01 T02240067  RH  036%=      5-min Rain = 0
KPG1 150040Z 04018KT 22/07 A3006 RMK A01 T02230067  RH  036%=      5-min Rain = 0
KPG1 150041Z 04018KT 22/07 A3006 RMK A01 T02230067  RH  037%=      5-min Rain = 0
KPG1 150042Z 04018KT 22/07 A3006 RMK A01 T02220068  RH  037%=      5-min Rain = 0
KPG1 150043Z 04018KT 22/07 A3006 RMK A01 T02220068  RH  037%=      5-min Rain = 0
KPG1 150044Z 04017KT 22/07 A3006 RMK A01 T02210068  RH  037%=      5-min Rain = 0
KPG1 150045Z 04017KT 22/07 A3006 RMK A01 T02210068  RH  037%=      5-min Rain = 0
KPG1 150046Z 04015KT 22/07 A3006 RMK A01 T02220068  RH  037%=      5-min Rain = 0
KPG1 150047Z 04015KT 22/07 A3006 RMK A01 T02210068  RH  037%=      5-min Rain = 0
KPG1 150048Z 04016KT 22/07 A3006 RMK A01 T02210068  RH  037%=      5-min Rain = 0
KPG1 150049Z 04018KT 22/07 A3006 RMK A01 T02200068  RH  037%=      5-min Rain = 0
KPG1 150050Z 04018KT 22/07 A3006 RMK A01 T02200069  RH  038%=      5-min Rain = 0
KPG1 150051Z 04017KT 22/07 A3006 RMK A01 T02190069  RH  038%=      5-min Rain = 0
KPG1 150052Z 04016KT 22/07 A3006 RMK A01 T02190069  RH  038%=      5-min Rain = 0
KPG1 150053Z 04017KT 22/07 A3006 RMK A01 T02180069  RH  038%=      5-min Rain = 0
KPG1 150054Z 04018KT 22/07 A3006 RMK A01 T02170070  RH  039%=      5-min Rain = 0
KPG1 150055Z 04018KT 22/07 A3006 RMK A01 T02160070  RH  039%=      5-min Rain = 0
KPG1 150056Z 04016KT 22/07 A3006 RMK A01 T02160070  RH  039%=      5-min Rain = 0
KPG1 150057Z 03018KT 22/07 A3006 RMK A01 T02150070  RH  039%=      5-min Rain = 0
KPG1 150058Z 03017KT 22/07 A3006 RMK A01 T02150070  RH  039%=      5-min Rain = 0
KPG1 150059Z 04017KT 22/07 A3006 RMK A01 T02150070  RH  039%=      5-min Rain = 0
KPG1 150100Z 03017KT 21/07 A3006 RMK A01 T02140070  RH  039%=      5-min Rain = 0
KPG1 150101Z 03019KT 21/07 A3006 RMK A01 T02140070  RH  039%=      5-min Rain = 0
KPG1 150102Z 03018KT 21/07 A3006 RMK A01 T02140070  RH  039%=      5-min Rain = 0
KPG1 150103Z 04018KT 21/07 A3006 RMK A01 T02130070  RH  040%=      5-min Rain = 0
KPG1 150104Z 04019KT 21/07 A3006 RMK A01 T02130070  RH  040%=      5-min Rain = 0
KPG1 150105Z 04017KT 21/07 A3006 RMK A01 T02120070  RH  040%=      5-min Rain = 0
KPG1 150106Z 04019KT 21/07 A3006 RMK A01 T02120070  RH  040%=      5-min Rain = 0
KPG1 150107Z 03017KT 21/07 A3006 RMK A01 T02120070  RH  040%=      5-min Rain = 0
KPG1 150108Z 04018KT 21/07 A3006 RMK A01 T02110070  RH  040%=      5-min Rain = 0
KPG1 150109Z 04017KT 21/07 A3006 RMK A01 T02110070  RH  040%=      5-min Rain = 0
KPG1 150110Z 04017KT 21/07 A3006 RMK A01 T02100070  RH  040%=      5-min Rain = 0
KPG1 150111Z 04017KT 21/07 A3006 RMK A01 T02110070  RH  040%=      5-min Rain = 0
KPG1 150112Z 04017KT 21/07 A3006 RMK A01 T02110070  RH  040%=      5-min Rain = 0
KPG1 150113Z 04017KT 21/07 A3006 RMK A01 T02100070  RH  040%=      5-min Rain = 0
KPG1 150114Z 04016KT 21/07 A3006 RMK A01 T02090070  RH  040%=      5-min Rain = 0
KPG1 150115Z 03015KT 21/07 A3006 RMK A01 T02080069  RH  040%=      5-min Rain = 0
KPG1 150116Z 03017KT 21/07 A3006 RMK A01 T02070069  RH  041%=      5-min Rain = 0
KPG1 150117Z 03017KT 21/07 A3006 RMK A01 T02060069  RH  041%=      5-min Rain = 0
KPG1 150118Z 04017KT 21/07 A3006 RMK A01 T02060069  RH  041%=      5-min Rain = 0
KPG1 150119Z 03016KT 21/07 A3006 RMK A01 T02060070  RH  041%=      5-min Rain = 0
KPG1 150120Z 03016KT 21/07 A3006 RMK A01 T02060069  RH  041%=      5-min Rain = 0
KPG1 150121Z 03015KT 21/07 A3006 RMK A01 T02060070  RH  041%=      5-min Rain = 0
KPG1 150122Z 02015KT 21/07 A3006 RMK A01 T02050069  RH  041%=      5-min Rain = 0
KPG1 150123Z 03017KT 21/07 A3006 RMK A01 T02050069  RH  041%=      5-min Rain = 0
KPG1 150124Z 03017KT 20/07 A3006 RMK A01 T02040070  RH  042%=      5-min Rain = 0
KPG1 150125Z 03016KT 20/07 A3006 RMK A01 T02040070  RH  042%=      5-min Rain = 0
KPG1 150126Z 03018KT 20/07 A3006 RMK A01 T02040070  RH  042%=      5-min Rain = 0
KPG1 150127Z 03016KT 20/07 A3006 RMK A01 T02040070  RH  042%=      5-min Rain = 0
KPG1 150128Z 03017KT 20/07 A3006 RMK A01 T02040070  RH  042%=      5-min Rain = 0
KPG1 150129Z 03018KT 20/07 A3006 RMK A01 T02030070  RH  042%=      5-min Rain = 0
KPG1 150130Z 04018KT 20/07 A3006 RMK A01 T02030070  RH  042%=      5-min Rain = 0
KPG1 150131Z 03018KT 20/07 A3006 RMK A01 T02030070  RH  042%=      5-min Rain = 0
KPG1 150132Z 03016KT 20/07 A3006 RMK A01 T02030070  RH  042%=      5-min Rain = 0
KPG1 150133Z 03014KT 20/07 A3006 RMK A01 T02020070  RH  042%=      5-min Rain = 0
KPG1 150134Z 03014KT 20/07 A3006 RMK A01 T02020069  RH  042%=      5-min Rain = 0
KPG1 150135Z 02014KT 20/07 A3006 RMK A01 T02010069  RH  042%=      5-min Rain = 0
KPG1 150136Z 02013KT 20/07 A3007 RMK A01 T02000069  RH  042%=      5-min Rain = 0
KPG1 150137Z 02017KT 20/07 A3007 RMK A01 T02000069  RH  043%=      5-min Rain = 0
KPG1 150138Z 02015KT 20/07 A3007 RMK A01 T02000069  RH  043%=      5-min Rain = 0
KPG1 150139Z 02016KT 20/07 A3007 RMK A01 T02000070  RH  043%=      5-min Rain = 0
KPG1 150140Z 02014KT 20/07 A3007 RMK A01 T02010070  RH  043%=      5-min Rain = 0
KPG1 150141Z 02016KT 20/07 A3007 RMK A01 T02010070  RH  043%=      5-min Rain = 0
KPG1 150142Z 02016KT 20/07 A3007 RMK A01 T02000070  RH  043%=      5-min Rain = 0
KPG1 150143Z 02016KT 20/07 A3007 RMK A01 T02000070  RH  043%=      5-min Rain = 0
KPG1 150144Z 02016KT 20/07 A3007 RMK A01 T02000070  RH  043%=      5-min Rain = 0
KPG1 150145Z 01014KT 20/07 A3007 RMK A01 T02000070  RH  043%=      5-min Rain = 0
KPG1 150146Z 02015KT 20/07 A3007 RMK A01 T01990070  RH  043%=      5-min Rain = 0
KPG1 150147Z 02015KT 20/07 A3007 RMK A01 T01990070  RH  043%=      5-min Rain = 0
KPG1 150148Z 02016KT 20/07 A3007 RMK A01 T01990070  RH  043%=      5-min Rain = 0
KPG1 150149Z 02017KT 20/07 A3007 RMK A01 T01980070  RH  043%=      5-min Rain = 0
KPG1 150150Z 02016KT 20/07 A3007 RMK A01 T01980070  RH  043%=      5-min Rain = 0
KPG1 150151Z 01015KT 20/07 A3007 RMK A01 T01980071  RH  044%=      5-min Rain = 0
KPG1 150152Z 02016KT 20/07 A3007 RMK A01 T01970070  RH  044%=      5-min Rain = 0
KPG1 150153Z 01015KT 20/07 A3007 RMK A01 T01970071  RH  044%=      5-min Rain = 0
KPG1 150154Z 02016KT 20/07 A3007 RMK A01 T01970070  RH  044%=      5-min Rain = 0
KPG1 150155Z 02016KT 20/07 A3007 RMK A01 T01960070  RH  044%=      5-min Rain = 0
KPG1 150156Z 01015KT 20/07 A3007 RMK A01 T01960071  RH  044%=      5-min Rain = 0
KPG1 150157Z 02017KT 20/07 A3007 RMK A01 T01960071  RH  044%=      5-min Rain = 0
KPG1 150158Z 02018KT 20/07 A3007 RMK A01 T01950071  RH  044%=      5-min Rain = 0
KPG1 150159Z 02018KT 20/07 A3007 RMK A01 T01950071  RH  044%=      5-min Rain = 0
KPG1 150200Z 02018KT 19/07 A3007 RMK A01 T01940071  RH  045%=      5-min Rain = 0
KPG1 150201Z 02018KT 19/07 A3007 RMK A01 T01940071  RH  045%=      5-min Rain = 0
KPG1 150202Z 02019KT 19/07 A3007 RMK A01 T01940071  RH  045%=      5-min Rain = 0
KPG1 150203Z 02018KT 19/07 A3007 RMK A01 T01940071  RH  045%=      5-min Rain = 0
KPG1 150204Z 02019KT 19/07 A3007 RMK A01 T01930071  RH  045%=      5-min Rain = 0
KPG1 150205Z 02018KT 19/07 A3007 RMK A01 T01930072  RH  045%=      5-min Rain = 0
KPG1 150206Z 02018KT 19/07 A3007 RMK A01 T01920071  RH  045%=      5-min Rain = 0
KPG1 150207Z 02019KT 19/07 A3007 RMK A01 T01920072  RH  045%=      5-min Rain = 0
KPG1 150208Z 02019KT 19/07 A3007 RMK A01 T01920071  RH  046%=      5-min Rain = 0
KPG1 150209Z 01019KT 19/07 A3007 RMK A01 T01920072  RH  046%=      5-min Rain = 0
KPG1 150210Z 01018KT 19/07 A3007 RMK A01 T01910072  RH  046%=      5-min Rain = 0
KPG1 150211Z 02018KT 19/07 A3007 RMK A01 T01910072  RH  046%=      5-min Rain = 0
KPG1 150212Z 01019KT 19/07 A3007 RMK A01 T01910072  RH  046%=      5-min Rain = 0
KPG1 150213Z 01018KT 19/07 A3007 RMK A01 T01910072  RH  046%=      5-min Rain = 0
KPG1 150214Z 01019KT 19/07 A3007 RMK A01 T01900072  RH  046%=      5-min Rain = 0
KPG1 150215Z 02018KT 19/07 A3007 RMK A01 T01900072  RH  046%=      5-min Rain = 0
KPG1 150216Z 01019KT 19/07 A3007 RMK A01 T01900072  RH  046%=      5-min Rain = 0
KPG1 150217Z 01019KT 19/07 A3007 RMK A01 T01900072  RH  046%=      5-min Rain = 0
KPG1 150218Z 01019KT 19/07 A3007 RMK A01 T01900073  RH  046%=      5-min Rain = 0
KPG1 150219Z 02019KT 19/07 A3007 RMK A01 T01900072  RH  046%=      5-min Rain = 0
KPG1 150220Z 02019KT 19/07 A3007 RMK A01 T01900073  RH  046%=      5-min Rain = 0
KPG1 150221Z 01019KT 19/07 A3007 RMK A01 T01900073  RH  046%=      5-min Rain = 0
KPG1 150222Z 01019KT 19/07 A3007 RMK A01 T01900073  RH  047%=      5-min Rain = 0
KPG1 150223Z 02019KT 19/07 A3007 RMK A01 T01900073  RH  047%=      5-min Rain = 0
KPG1 150224Z 01018KT 19/07 A3007 RMK A01 T01900073  RH  047%=      5-min Rain = 0
KPG1 150225Z 02018KT 19/07 A3007 RMK A01 T01900073  RH  047%=      5-min Rain = 0
KPG1 150226Z 02018KT 19/07 A3007 RMK A01 T01890073  RH  047%=      5-min Rain = 0
KPG1 150227Z 02017KT 19/07 A3007 RMK A01 T01880073  RH  047%=      5-min Rain = 0
KPG1 150228Z 02015KT 19/07 A3007 RMK A01 T01870072  RH  047%=      5-min Rain = 0
KPG1 150229Z 02018KT 19/07 A3007 RMK A01 T01860072  RH  047%=      5-min Rain = 0
KPG1 150230Z 02017KT 19/07 A3007 RMK A01 T01860072  RH  048%=      5-min Rain = 0
KPG1 150231Z 02018KT 19/07 A3007 RMK A01 T01850073  RH  048%=      5-min Rain = 0
KPG1 150232Z 02019KT 19/07 A3007 RMK A01 T01860074  RH  048%=      5-min Rain = 0
KPG1 150233Z 02018KT 19/07 A3007 RMK A01 T01850073  RH  048%=      5-min Rain = 0
KPG1 150234Z 02019KT 19/07 A3007 RMK A01 T01850074  RH  048%=      5-min Rain = 0
KPG1 150235Z 02017KT 19/07 A3008 RMK A01 T01850073  RH  048%=      5-min Rain = 0
KPG1 150236Z 02019KT 19/07 A3008 RMK A01 T01850073  RH  048%=      5-min Rain = 0
KPG1 150237Z 02019KT 19/07 A3008 RMK A01 T01850074  RH  048%=      5-min Rain = 0
KPG1 150238Z 02018KT 19/07 A3008 RMK A01 T01850074  RH  048%=      5-min Rain = 0
KPG1 150239Z 01019KT 19/08 A3008 RMK A01 T01850075  RH  049%=      5-min Rain = 0
KPG1 150240Z 02018KT 19/08 A3008 RMK A01 T01850076  RH  049%=      5-min Rain = 0
KPG1 150241Z 02018KT 18/08 A3008 RMK A01 T01840077  RH  049%=      5-min Rain = 0
KPG1 150242Z 03017KT 18/08 A3008 RMK A01 T01830076  RH  050%=      5-min Rain = 0
KPG1 150243Z 02019KT 18/08 A3008 RMK A01 T01830076  RH  050%=      5-min Rain = 0
KPG1 150244Z 03017KT 18/08 A3008 RMK A01 T01820077  RH  050%=      5-min Rain = 0
KPG1 150245Z 03017KT 18/08 A3008 RMK A01 T01810077  RH  050%=      5-min Rain = 0
KPG1 150246Z 03019KT 18/08 A3008 RMK A01 T01810077  RH  051%=      5-min Rain = 0
KPG1 150247Z 03019KT 18/08 A3008 RMK A01 T01810078  RH  051%=      5-min Rain = 0
KPG1 150248Z 04018KT 18/08 A3008 RMK A01 T01810079  RH  051%=      5-min Rain = 0
KPG1 150249Z 04019KT 18/08 A3008 RMK A01 T01800079  RH  052%=      5-min Rain = 0
KPG1 150250Z 04019KT 18/08 A3008 RMK A01 T01800079  RH  052%=      5-min Rain = 0
KPG1 150251Z 03017KT 18/08 A3008 RMK A01 T01800079  RH  052%=      5-min Rain = 0
KPG1 150252Z 04017KT 18/08 A3008 RMK A01 T01800079  RH  052%=      5-min Rain = 0
KPG1 150253Z 03018KT 18/08 A3008 RMK A01 T01790078  RH  052%=      5-min Rain = 0
KPG1 150254Z 03015KT 18/08 A3008 RMK A01 T01780077  RH  051%=      5-min Rain = 0
KPG1 150255Z 03015KT 18/08 A3008 RMK A01 T01780075  RH  051%=      5-min Rain = 0
KPG1 150256Z 02017KT 18/08 A3008 RMK A01 T01770075  RH  051%=      5-min Rain = 0
KPG1 150257Z 02019KT 18/08 A3008 RMK A01 T01770077  RH  052%=      5-min Rain = 0
KPG1 150258Z 02019KT 18/08 A3008 RMK A01 T01780078  RH  052%=      5-min Rain = 0
KPG1 150259Z 02018KT 18/08 A3008 RMK A01 T01780078  RH  052%=      5-min Rain = 0
KPG1 150300Z 02019KT 18/08 A3008 RMK A01 T01780079  RH  052%=      5-min Rain = 0
KPG1 150301Z 02018KT 18/08 A3008 RMK A01 T01780080  RH  053%=      5-min Rain = 0
KPG1 150302Z 02019KT 18/08 A3008 RMK A01 T01780080  RH  053%=      5-min Rain = 0
KPG1 150303Z 02020KT 18/08 A3008 RMK A01 T01780080  RH  053%=      5-min Rain = 0
KPG1 150304Z 02020KT 18/08 A3009 RMK A01 T01780082  RH  053%=      5-min Rain = 0
KPG1 150305Z 02020KT 18/08 A3009 RMK A01 T01780082  RH  053%=      5-min Rain = 0
KPG1 150306Z 02019KT 18/08 A3009 RMK A01 T01770082  RH  054%=      5-min Rain = 0
KPG1 150307Z 03020KT 18/08 A3009 RMK A01 T01770083  RH  054%=      5-min Rain = 0
KPG1 150308Z 02019KT 18/08 A3009 RMK A01 T01760082  RH  054%=      5-min Rain = 0
KPG1 150309Z 02018KT 18/08 A3009 RMK A01 T01760081  RH  054%=      5-min Rain = 0
KPG1 150310Z 02019KT 18/08 A3009 RMK A01 T01750082  RH  054%=      5-min Rain = 0
KPG1 150311Z 02018KT 18/08 A3009 RMK A01 T01750082  RH  054%=      5-min Rain = 0
KPG1 150312Z 03017KT 18/08 A3009 RMK A01 T01750082  RH  054%=      5-min Rain = 0
KPG1 150313Z 02016KT 17/08 A3009 RMK A01 T01740082  RH  054%=      5-min Rain = 0
KPG1 150314Z 02016KT 17/08 A3009 RMK A01 T01740081  RH  055%=      5-min Rain = 0
KPG1 150315Z 02017KT 17/08 A3009 RMK A01 T01730082  RH  055%=      5-min Rain = 0
KPG1 150316Z 02018KT 17/08 A3009 RMK A01 T01730083  RH  055%=      5-min Rain = 0
KPG1 150317Z 03016KT 17/08 A3009 RMK A01 T01730083  RH  056%=      5-min Rain = 0
KPG1 150318Z 03016KT 17/08 A3009 RMK A01 T01730083  RH  056%=      5-min Rain = 0
KPG1 150319Z 03015KT 17/08 A3009 RMK A01 T01730084  RH  056%=      5-min Rain = 0
KPG1 150320Z 03017KT 17/08 A3009 RMK A01 T01720084  RH  056%=      5-min Rain = 0
KPG1 150321Z 03016KT 17/08 A3009 RMK A01 T01720084  RH  056%=      5-min Rain = 0
KPG1 150322Z 04018KT 17/09 A3009 RMK A01 T01720085  RH  056%=      5-min Rain = 0
KPG1 150323Z 04019KT 17/09 A3009 RMK A01 T01720085  RH  057%=      5-min Rain = 0
KPG1 150324Z 04018KT 17/09 A3009 RMK A01 T01720085  RH  057%=      5-min Rain = 0
KPG1 150325Z 04019KT 17/09 A3009 RMK A01 T01720086  RH  057%=      5-min Rain = 0
KPG1 150326Z 04018KT 17/09 A3009 RMK A01 T01720086  RH  057%=      5-min Rain = 0
KPG1 150327Z 04018KT 17/09 A301 RMK A01 T01720086  RH  057%=      5-min Rain = 0
KPG1 150328Z 04018KT 17/09 A301 RMK A01 T01720086  RH  057%=      5-min Rain = 0
KPG1 150329Z 04017KT 17/09 A301 RMK A01 T01720086  RH  057%=      5-min Rain = 0
KPG1 150330Z 04018KT 17/09 A301 RMK A01 T01730086  RH  057%=      5-min Rain = 0
KPG1 150331Z 04018KT 17/09 A301 RMK A01 T01730086  RH  057%=      5-min Rain = 0
KPG1 150332Z 04018KT 17/09 A301 RMK A01 T01730086  RH  057%=      5-min Rain = 0
KPG1 150333Z 03018KT 17/09 A301 RMK A01 T01720086  RH  057%=      5-min Rain = 0
KPG1 150334Z 04018KT 17/09 A301 RMK A01 T01710086  RH  057%=      5-min Rain = 0
KPG1 150335Z 04018KT 17/09 A301 RMK A01 T01710086  RH  057%=      5-min Rain = 0
KPG1 150336Z 04018KT 17/09 A301 RMK A01 T01710086  RH  057%=      5-min Rain = 0
KPG1 150337Z 04018KT 17/09 A301 RMK A01 T01700085  RH  057%=      5-min Rain = 0
KPG1 150338Z 04018KT 17/09 A301 RMK A01 T01700085  RH  057%=      5-min Rain = 0
KPG1 150339Z 04018KT 17/09 A301 RMK A01 T01690087  RH  058%=      5-min Rain = 0
KPG1 150340Z 03016KT 17/09 A301 RMK A01 T01690087  RH  058%=      5-min Rain = 0
KPG1 150341Z 03015KT 17/09 A301 RMK A01 T01690086  RH  058%=      5-min Rain = 0
KPG1 150342Z 03017KT 17/09 A301 RMK A01 T01680086  RH  058%=      5-min Rain = 0
KPG1 150343Z 03017KT 17/09 A301 RMK A01 T01680087  RH  059%=      5-min Rain = 0
KPG1 150344Z 03016KT 17/09 A301 RMK A01 T01670088  RH  059%=      5-min Rain = 0
KPG1 150345Z 03016KT 17/09 A301 RMK A01 T01670088  RH  059%=      5-min Rain = 0
KPG1 150346Z 04018KT 17/09 A301 RMK A01 T01670088  RH  060%=      5-min Rain = 0
KPG1 150347Z 03018KT 17/09 A301 RMK A01 T01670089  RH  060%=      5-min Rain = 0
KPG1 150348Z 03019KT 17/09 A301 RMK A01 T01670089  RH  060%=      5-min Rain = 0
KPG1 150349Z 03019KT 17/09 A301 RMK A01 T01670089  RH  060%=      5-min Rain = 0
KPG1 150350Z 03017KT 17/09 A301 RMK A01 T01670089  RH  060%=      5-min Rain = 0
KPG1 150351Z 03018KT 17/09 A301 RMK A01 T01660089  RH  060%=      5-min Rain = 0
KPG1 150352Z 03016KT 17/09 A301 RMK A01 T01660089  RH  060%=      5-min Rain = 0
KPG1 150353Z 03016KT 17/09 A301 RMK A01 T01650089  RH  061%=      5-min Rain = 0
KPG1 150354Z 03015KT 17/09 A301 RMK A01 T01650089  RH  061%=      5-min Rain = 0
KPG1 150355Z 03019KT 17/09 A301 RMK A01 T01650090  RH  061%=      5-min Rain = 0
KPG1 150356Z 03019KT 17/09 A301 RMK A01 T01650091  RH  062%=      5-min Rain = 0
KPG1 150357Z 04021KT 17/09 A301 RMK A01 T01650092  RH  062%=      5-min Rain = 0
KPG1 150358Z 04019KT 17/09 A301 RMK A01 T01650092  RH  062%=      5-min Rain = 0
KPG1 150359Z 04018KT 17/09 A301 RMK A01 T01660093  RH  062%=      5-min Rain = 0
KPG1 150400Z 04017KT 17/09 A301 RMK A01 T01650092  RH  062%=      5-min Rain = 0
KPG1 150401Z 04019KT 16/09 A301 RMK A01 T01640092  RH  062%=      5-min Rain = 0
KPG1 150402Z 04016KT 16/09 A3011 RMK A01 T01640092  RH  062%=      5-min Rain = 0
KPG1 150403Z 03017KT 16/09 A3011 RMK A01 T01640092  RH  062%=      5-min Rain = 0
KPG1 150404Z 03015KT 16/09 A3011 RMK A01 T01640092  RH  062%=      5-min Rain = 0
KPG1 150405Z 03015KT 16/09 A3011 RMK A01 T01630091  RH  063%=      5-min Rain = 0
KPG1 150406Z 03016KT 16/09 A3011 RMK A01 T01620091  RH  063%=      5-min Rain = 0
KPG1 150407Z 03016KT 16/09 A3011 RMK A01 T01620091  RH  063%=      5-min Rain = 0
KPG1 150408Z 03015KT 16/09 A3011 RMK A01 T01610090  RH  063%=      5-min Rain = 0
KPG1 150409Z 03015KT 16/09 A3011 RMK A01 T01610091  RH  063%=      5-min Rain = 0
KPG1 150410Z 03014KT 16/09 A3011 RMK A01 T01610091  RH  063%=      5-min Rain = 0
KPG1 150411Z 03016KT 16/09 A3011 RMK A01 T01600091  RH  063%=      5-min Rain = 0
KPG1 150412Z 03016KT 16/09 A3011 RMK A01 T01600091  RH  064%=      5-min Rain = 0
KPG1 150413Z 03015KT 16/09 A3011 RMK A01 T01600092  RH  064%=      5-min Rain = 0
KPG1 150414Z 03015KT 16/09 A3011 RMK A01 T01600092  RH  064%=      5-min Rain = 0
KPG1 150415Z 03017KT 16/09 A3011 RMK A01 T01600092  RH  064%=      5-min Rain = 0
KPG1 150416Z 03016KT 16/09 A3011 RMK A01 T01590092  RH  064%=      5-min Rain = 0
KPG1 150417Z 03016KT 16/09 A3011 RMK A01 T01590092  RH  064%=      5-min Rain = 0
KPG1 150418Z 03015KT 16/09 A3011 RMK A01 T01590093  RH  065%=      5-min Rain = 0
KPG1 150419Z 03016KT 16/09 A3011 RMK A01 T01590093  RH  065%=      5-min Rain = 0
KPG1 150420Z 04015KT 16/09 A3011 RMK A01 T01590093  RH  065%=      5-min Rain = 0
KPG1 150421Z 04016KT 16/09 A3011 RMK A01 T01590093  RH  065%=      5-min Rain = 0
KPG1 150422Z 04016KT 16/09 A3011 RMK A01 T01590093  RH  065%=      5-min Rain = 0
KPG1 150423Z 04017KT 16/09 A3011 RMK A01 T01590093  RH  065%=      5-min Rain = 0
KPG1 150424Z 04015KT 16/09 A3011 RMK A01 T01590093  RH  065%=      5-min Rain = 0
KPG1 150425Z 04016KT 16/09 A3011 RMK A01 T01590093  RH  065%=      5-min Rain = 0
KPG1 150426Z 04015KT 16/09 A3011 RMK A01 T01590093  RH  065%=      5-min Rain = 0
KPG1 150427Z 04016KT 16/09 A3011 RMK A01 T01590093  RH  065%=      5-min Rain = 0
KPG1 150428Z 05016KT 16/09 A3011 RMK A01 T01590093  RH  065%=      5-min Rain = 0
KPG1 150429Z 05015KT 16/09 A3011 RMK A01 T01590094  RH  065%=      5-min Rain = 0
KPG1 150430Z 05016KT 16/09 A3011 RMK A01 T01590093  RH  065%=      5-min Rain = 0
KPG1 150431Z 04015KT 16/09 A3011 RMK A01 T01590094  RH  065%=      5-min Rain = 0
KPG1 150432Z 05015KT 16/09 A3011 RMK A01 T01590094  RH  065%=      5-min Rain = 0
KPG1 150433Z 05015KT 16/09 A3011 RMK A01 T01590094  RH  065%=      5-min Rain = 0
KPG1 150434Z 05015KT 16/09 A3011 RMK A01 T01580094  RH  066%=      5-min Rain = 0
KPG1 150435Z 05014KT 16/09 A3011 RMK A01 T01580094  RH  066%=      5-min Rain = 0
KPG1 150436Z 05015KT 16/09 A3011 RMK A01 T01570094  RH  066%=      5-min Rain = 0
KPG1 150437Z 05015KT 16/09 A3011 RMK A01 T01570094  RH  066%=      5-min Rain = 0
KPG1 150438Z 05015KT 16/09 A3011 RMK A01 T01570094  RH  066%=      5-min Rain = 0
KPG1 150439Z 05014KT 16/09 A3011 RMK A01 T01570094  RH  066%=      5-min Rain = 0
KPG1 150440Z 05013KT 16/09 A3011 RMK A01 T01570094  RH  066%=      5-min Rain = 0
KPG1 150441Z 04014KT 16/09 A3011 RMK A01 T01570094  RH  066%=      5-min Rain = 0
KPG1 150442Z 05013KT 16/09 A3011 RMK A01 T01570094  RH  066%=      5-min Rain = 0
KPG1 150443Z 05013KT 16/09 A3011 RMK A01 T01570093  RH  066%=      5-min Rain = 0
KPG1 150444Z 04012KT 16/09 A3011 RMK A01 T01570092  RH  066%=      5-min Rain = 0
KPG1 150445Z 05013KT 16/09 A3011 RMK A01 T01570093  RH  066%=      5-min Rain = 0
KPG1 150446Z 05013KT 16/09 A3011 RMK A01 T01560092  RH  066%=      5-min Rain = 0
KPG1 150447Z 05013KT 16/09 A3011 RMK A01 T01560092  RH  066%=      5-min Rain = 0
KPG1 150448Z 05014KT 16/09 A3011 RMK A01 T01560093  RH  066%=      5-min Rain = 0
KPG1 150449Z 05014KT 16/09 A3011 RMK A01 T01560093  RH  066%=      5-min Rain = 0
KPG1 150450Z 05013KT 16/09 A3011 RMK A01 T01560092  RH  066%=      5-min Rain = 0
KPG1 150451Z 05014KT 16/09 A3011 RMK A01 T01560092  RH  066%=      5-min Rain = 0
KPG1 150452Z 04014KT 16/09 A3011 RMK A01 T01560092  RH  066%=      5-min Rain = 0
KPG1 150453Z 04014KT 16/09 A3011 RMK A01 T01570091  RH  065%=      5-min Rain = 0
KPG1 150454Z 05015KT 16/09 A3011 RMK A01 T01570091  RH  065%=      5-min Rain = 0
KPG1 150455Z 05015KT 16/09 A3011 RMK A01 T01570091  RH  065%=      5-min Rain = 0
KPG1 150456Z 05015KT 16/09 A3011 RMK A01 T01580091  RH  064%=      5-min Rain = 0
KPG1 150457Z 04014KT 16/09 A3011 RMK A01 T01570090  RH  064%=      5-min Rain = 0
KPG1 150458Z 04014KT 16/09 A3011 RMK A01 T01580090  RH  064%=      5-min Rain = 0
KPG1 150459Z 05015KT 16/09 A3011 RMK A01 T01580090  RH  064%=      5-min Rain = 0
KPG1 150500Z 05017KT 16/09 A3011 RMK A01 T01580090  RH  064%=      5-min Rain = 0
KPG1 150501Z 05015KT 16/09 A3011 RMK A01 T01580090  RH  064%=      5-min Rain = 0
KPG1 150502Z 04015KT 16/09 A3011 RMK A01 T01580090  RH  064%=      5-min Rain = 0
KPG1 150503Z 05015KT 16/09 A3011 RMK A01 T01580090  RH  064%=      5-min Rain = 0
KPG1 150504Z 04015KT 16/09 A3011 RMK A01 T01580090  RH  064%=      5-min Rain = 0
KPG1 150505Z 05013KT 16/09 A3011 RMK A01 T01580090  RH  064%=      5-min Rain = 0
KPG1 150506Z 04016KT 16/09 A3011 RMK A01 T01580090  RH  064%=      5-min Rain = 0
KPG1 150507Z 05016KT 16/09 A3011 RMK A01 T01580090  RH  064%=      5-min Rain = 0
KPG1 150508Z 05016KT 16/09 A3011 RMK A01 T01580090  RH  064%=      5-min Rain = 0
KPG1 150509Z 05016KT 16/09 A3011 RMK A01 T01580090  RH  064%=      5-min Rain = 0
KPG1 150510Z 04015KT 16/09 A3011 RMK A01 T01570089  RH  064%=      5-min Rain = 0
KPG1 150511Z 04013KT 16/09 A3011 RMK A01 T01570089  RH  064%=      5-min Rain = 0
KPG1 150512Z 04014KT 16/09 A3011 RMK A01 T01570089  RH  064%=      5-min Rain = 0
KPG1 150513Z 04014KT 16/09 A3011 RMK A01 T01570089  RH  064%=      5-min Rain = 0
KPG1 150514Z 05012KT 16/09 A3011 RMK A01 T01570089  RH  064%=      5-min Rain = 0
KPG1 150515Z 05013KT 16/09 A3011 RMK A01 T01560090  RH  065%=      5-min Rain = 0
KPG1 150516Z 05014KT 16/09 A3011 RMK A01 T01550090  RH  065%=      5-min Rain = 0
KPG1 150517Z 05014KT 15/09 A3011 RMK A01 T01540090  RH  065%=      5-min Rain = 0
KPG1 150518Z 05013KT 15/09 A3011 RMK A01 T01540090  RH  066%=      5-min Rain = 0
KPG1 150519Z 05013KT 15/09 A3011 RMK A01 T01540090  RH  066%=      5-min Rain = 0
KPG1 150520Z 05013KT 15/09 A3011 RMK A01 T01530090  RH  066%=      5-min Rain = 0
KPG1 150521Z 05013KT 15/09 A3011 RMK A01 T01530090  RH  066%=      5-min Rain = 0
KPG1 150522Z 05013KT 15/09 A3011 RMK A01 T01530090  RH  066%=      5-min Rain = 0
KPG1 150523Z 05013KT 15/09 A3011 RMK A01 T01530090  RH  066%=      5-min Rain = 0
KPG1 150524Z 05012KT 15/09 A3011 RMK A01 T01520090  RH  066%=      5-min Rain = 0
KPG1 150525Z 05013KT 15/09 A3011 RMK A01 T01520089  RH  066%=      5-min Rain = 0
KPG1 150526Z 05013KT 15/09 A3011 RMK A01 T01530090  RH  066%=      5-min Rain = 0
KPG1 150527Z 04012KT 15/09 A3011 RMK A01 T01530090  RH  066%=      5-min Rain = 0
KPG1 150528Z 04013KT 15/09 A3011 RMK A01 T01520089  RH  066%=      5-min Rain = 0
KPG1 150529Z 04014KT 15/09 A3011 RMK A01 T01520089  RH  066%=      5-min Rain = 0
KPG1 150530Z 04013KT 15/09 A3011 RMK A01 T01520089  RH  066%=      5-min Rain = 0
KPG1 150531Z 04015KT 15/09 A3011 RMK A01 T01520089  RH  066%=      5-min Rain = 0
KPG1 150532Z 04014KT 15/09 A3011 RMK A01 T01540090  RH  066%=      5-min Rain = 0
KPG1 150533Z 04011KT 15/09 A3011 RMK A01 T01540090  RH  065%=      5-min Rain = 0
KPG1 150534Z 04012KT 15/09 A3011 RMK A01 T01540089  RH  065%=      5-min Rain = 0
KPG1 150535Z 04012KT 15/09 A3011 RMK A01 T01530089  RH  066%=      5-min Rain = 0
KPG1 150536Z 04011KT 15/09 A3011 RMK A01 T01530089  RH  066%=      5-min Rain = 0
KPG1 150537Z 04011KT 15/09 A3011 RMK A01 T01530089  RH  066%=      5-min Rain = 0
KPG1 150538Z 04012KT 15/09 A3011 RMK A01 T01520090  RH  066%=      5-min Rain = 0
KPG1 150539Z 04014KT 15/09 A3011 RMK A01 T01520090  RH  067%=      5-min Rain = 0
KPG1 150540Z 04013KT 15/09 A3011 RMK A01 T01530091  RH  067%=      5-min Rain = 0
KPG1 150541Z 04013KT 15/09 A3011 RMK A01 T01540091  RH  066%=      5-min Rain = 0
KPG1 150542Z 04013KT 15/09 A3011 RMK A01 T01540092  RH  066%=      5-min Rain = 0
KPG1 150543Z 04013KT 15/09 A3011 RMK A01 T01530092  RH  067%=      5-min Rain = 0
KPG1 150544Z 04013KT 15/09 A3011 RMK A01 T01530092  RH  067%=      5-min Rain = 0
KPG1 150545Z 04014KT 15/09 A3011 RMK A01 T01530092  RH  067%=      5-min Rain = 0
KPG1 150546Z 04014KT 15/09 A3011 RMK A01 T01530092  RH  067%=      5-min Rain = 0
KPG1 150547Z 04014KT 15/09 A3011 RMK A01 T01530093  RH  067%=      5-min Rain = 0
KPG1 150548Z 04012KT 15/09 A3011 RMK A01 T01530092  RH  067%=      5-min Rain = 0
KPG1 150549Z 04012KT 15/09 A3011 RMK A01 T01520092  RH  067%=      5-min Rain = 0
KPG1 150550Z 05012KT 15/09 A3011 RMK A01 T01520092  RH  068%=      5-min Rain = 0
KPG1 150551Z 04011KT 15/09 A3011 RMK A01 T01510092  RH  068%=      5-min Rain = 0
KPG1 150552Z 05011KT 15/09 A3011 RMK A01 T01500091  RH  068%=      5-min Rain = 0
KPG1 150553Z 04011KT 15/09 A3011 RMK A01 T01500091  RH  068%=      5-min Rain = 0
KPG1 150554Z 05012KT 15/09 A3012 RMK A01 T01490091  RH  068%=      5-min Rain = 0
KPG1 150555Z 05011KT 15/09 A3012 RMK A01 T01490091  RH  068%=      5-min Rain = 0
KPG1 150556Z 04012KT 15/09 A3011 RMK A01 T01480091  RH  068%=      5-min Rain = 0
KPG1 150557Z 05013KT 15/09 A3011 RMK A01 T01480091  RH  069%=      5-min Rain = 0
KPG1 150558Z 05013KT 15/09 A3011 RMK A01 T01480092  RH  069%=      5-min Rain = 0
KPG1 150559Z 05013KT 15/09 A3011 RMK A01 T01490092  RH  069%=      5-min Rain = 0

Page generated in 0.1208 seconds.